<?xml version="1.0" encoding="UTF-8" standalone="no" ?>
<gpx xmlns="http://www.topografix.com/GPX/1/1" xmlns:xsi="http://www.w3.org/2001/XMLSchema-instance" xsi:schemaLocation="http://www.topografix.com/GPX/1/1 http://www.topografix.com/GPX/1/1/gpx.xsd" version="1.1" creator="VisuGPX - https://www.visugpx.com">
  <metadata>
    <name>VTT dans les Marais d'Olonne</name>
    <desc><![CDATA[Possibilité de s'arrêter acheter du sel en saison 
]]></desc>
  </metadata>
  <trk>
    <name><![CDATA[511n5214 on AllTrails]]></name>
    <trkseg>
      <trkpt lat="46.54036" lon="-1.73526">
        <ele>156</ele>
        <time>2019-12-30T15:48:42Z</time>
      </trkpt>
      <trkpt lat="46.54058" lon="-1.73539">
        <ele>156</ele>
        <time>2019-12-30T15:48:45Z</time>
      </trkpt>
      <trkpt lat="46.54059" lon="-1.7355">
        <ele>157</ele>
        <time>2019-12-30T15:48:46Z</time>
      </trkpt>
      <trkpt lat="46.54061" lon="-1.73562">
        <ele>157</ele>
        <time>2019-12-30T15:48:48Z</time>
      </trkpt>
      <trkpt lat="46.54072" lon="-1.73638">
        <ele>156</ele>
        <time>2019-12-30T15:49:00Z</time>
      </trkpt>
      <trkpt lat="46.54075" lon="-1.73662">
        <ele>156</ele>
        <time>2019-12-30T15:49:04Z</time>
      </trkpt>
      <trkpt lat="46.54077" lon="-1.73703">
        <ele>155</ele>
        <time>2019-12-30T15:49:11Z</time>
      </trkpt>
      <trkpt lat="46.5408" lon="-1.73783">
        <ele>155</ele>
        <time>2019-12-30T15:49:24Z</time>
      </trkpt>
      <trkpt lat="46.54077" lon="-1.73845">
        <ele>154</ele>
        <time>2019-12-30T15:49:33Z</time>
      </trkpt>
      <trkpt lat="46.5407" lon="-1.73925">
        <ele>154</ele>
        <time>2019-12-30T15:49:45Z</time>
      </trkpt>
      <trkpt lat="46.54068" lon="-1.73952">
        <ele>153</ele>
        <time>2019-12-30T15:49:49Z</time>
      </trkpt>
      <trkpt lat="46.54064" lon="-1.73986">
        <ele>153</ele>
        <time>2019-12-30T15:49:54Z</time>
      </trkpt>
      <trkpt lat="46.54056" lon="-1.74017">
        <ele>152</ele>
        <time>2019-12-30T15:49:59Z</time>
      </trkpt>
      <trkpt lat="46.54036" lon="-1.74079">
        <ele>152</ele>
        <time>2019-12-30T15:50:09Z</time>
      </trkpt>
      <trkpt lat="46.54035" lon="-1.74092">
        <ele>151</ele>
        <time>2019-12-30T15:50:11Z</time>
      </trkpt>
      <trkpt lat="46.54035" lon="-1.74106">
        <ele>151</ele>
        <time>2019-12-30T15:50:13Z</time>
      </trkpt>
      <trkpt lat="46.54041" lon="-1.74184">
        <ele>152</ele>
        <time>2019-12-30T15:50:31Z</time>
      </trkpt>
      <trkpt lat="46.54042" lon="-1.74187">
        <ele>152</ele>
        <time>2019-12-30T15:50:37Z</time>
      </trkpt>
      <trkpt lat="46.54041" lon="-1.74191">
        <ele>152</ele>
        <time>2019-12-30T15:50:39Z</time>
      </trkpt>
      <trkpt lat="46.54046" lon="-1.74229">
        <ele>152</ele>
        <time>2019-12-30T15:50:47Z</time>
      </trkpt>
      <trkpt lat="46.54052" lon="-1.74283">
        <ele>151</ele>
        <time>2019-12-30T15:50:55Z</time>
      </trkpt>
      <trkpt lat="46.54064" lon="-1.74365">
        <ele>151</ele>
        <time>2019-12-30T15:51:07Z</time>
      </trkpt>
      <trkpt lat="46.54078" lon="-1.74454">
        <ele>150</ele>
        <time>2019-12-30T15:51:20Z</time>
      </trkpt>
      <trkpt lat="46.54083" lon="-1.74482">
        <ele>150</ele>
        <time>2019-12-30T15:51:25Z</time>
      </trkpt>
      <trkpt lat="46.54086" lon="-1.74521">
        <ele>149</ele>
        <time>2019-12-30T15:51:29Z</time>
      </trkpt>
      <trkpt lat="46.54084" lon="-1.74557">
        <ele>147</ele>
        <time>2019-12-30T15:51:34Z</time>
      </trkpt>
      <trkpt lat="46.54083" lon="-1.74577">
        <ele>146</ele>
        <time>2019-12-30T15:51:36Z</time>
      </trkpt>
      <trkpt lat="46.54082" lon="-1.74597">
        <ele>145</ele>
        <time>2019-12-30T15:51:38Z</time>
      </trkpt>
      <trkpt lat="46.54081" lon="-1.74628">
        <ele>144</ele>
        <time>2019-12-30T15:51:41Z</time>
      </trkpt>
      <trkpt lat="46.5408" lon="-1.7467">
        <ele>143</ele>
        <time>2019-12-30T15:51:44Z</time>
      </trkpt>
      <trkpt lat="46.54079" lon="-1.7469">
        <ele>142</ele>
        <time>2019-12-30T15:51:47Z</time>
      </trkpt>
      <trkpt lat="46.54078" lon="-1.747">
        <ele>141</ele>
        <time>2019-12-30T15:51:48Z</time>
      </trkpt>
      <trkpt lat="46.5406" lon="-1.7478">
        <ele>142</ele>
        <time>2019-12-30T15:51:58Z</time>
      </trkpt>
      <trkpt lat="46.54058" lon="-1.74787">
        <ele>143</ele>
        <time>2019-12-30T15:51:59Z</time>
      </trkpt>
      <trkpt lat="46.5405" lon="-1.74814">
        <ele>144</ele>
        <time>2019-12-30T15:52:03Z</time>
      </trkpt>
      <trkpt lat="46.54041" lon="-1.74847">
        <ele>145</ele>
        <time>2019-12-30T15:52:08Z</time>
      </trkpt>
      <trkpt lat="46.5404" lon="-1.7486">
        <ele>145</ele>
        <time>2019-12-30T15:52:10Z</time>
      </trkpt>
      <trkpt lat="46.54042" lon="-1.74871">
        <ele>146</ele>
        <time>2019-12-30T15:52:12Z</time>
      </trkpt>
      <trkpt lat="46.54046" lon="-1.74882">
        <ele>146</ele>
        <time>2019-12-30T15:52:14Z</time>
      </trkpt>
      <trkpt lat="46.54055" lon="-1.74911">
        <ele>147</ele>
        <time>2019-12-30T15:52:19Z</time>
      </trkpt>
      <trkpt lat="46.54059" lon="-1.74929">
        <ele>147</ele>
        <time>2019-12-30T15:52:22Z</time>
      </trkpt>
      <trkpt lat="46.54061" lon="-1.74935">
        <ele>147</ele>
        <time>2019-12-30T15:52:23Z</time>
      </trkpt>
      <trkpt lat="46.54069" lon="-1.74956">
        <ele>147</ele>
        <time>2019-12-30T15:52:27Z</time>
      </trkpt>
      <trkpt lat="46.54077" lon="-1.74973">
        <ele>147</ele>
        <time>2019-12-30T15:52:30Z</time>
      </trkpt>
      <trkpt lat="46.54081" lon="-1.74985">
        <ele>147</ele>
        <time>2019-12-30T15:52:32Z</time>
      </trkpt>
      <trkpt lat="46.54082" lon="-1.74997">
        <ele>147</ele>
        <time>2019-12-30T15:52:34Z</time>
      </trkpt>
      <trkpt lat="46.54084" lon="-1.7503">
        <ele>146</ele>
        <time>2019-12-30T15:52:39Z</time>
      </trkpt>
      <trkpt lat="46.54084" lon="-1.75036">
        <ele>146</ele>
        <time>2019-12-30T15:52:40Z</time>
      </trkpt>
      <trkpt lat="46.54089" lon="-1.75097">
        <ele>146</ele>
        <time>2019-12-30T15:52:49Z</time>
      </trkpt>
      <trkpt lat="46.54092" lon="-1.75176">
        <ele>146</ele>
        <time>2019-12-30T15:53:01Z</time>
      </trkpt>
      <trkpt lat="46.54091" lon="-1.75195">
        <ele>147</ele>
        <time>2019-12-30T15:53:07Z</time>
      </trkpt>
      <trkpt lat="46.54088" lon="-1.75236">
        <ele>146</ele>
        <time>2019-12-30T15:53:17Z</time>
      </trkpt>
      <trkpt lat="46.54082" lon="-1.75284">
        <ele>146</ele>
        <time>2019-12-30T15:53:25Z</time>
      </trkpt>
      <trkpt lat="46.54088" lon="-1.75343">
        <ele>147</ele>
        <time>2019-12-30T15:53:35Z</time>
      </trkpt>
      <trkpt lat="46.54103" lon="-1.75385">
        <ele>147</ele>
        <time>2019-12-30T15:53:43Z</time>
      </trkpt>
      <trkpt lat="46.54106" lon="-1.75395">
        <ele>147</ele>
        <time>2019-12-30T15:53:45Z</time>
      </trkpt>
      <trkpt lat="46.5411" lon="-1.75411">
        <ele>148</ele>
        <time>2019-12-30T15:53:49Z</time>
      </trkpt>
      <trkpt lat="46.54114" lon="-1.75426">
        <ele>149</ele>
        <time>2019-12-30T15:53:53Z</time>
      </trkpt>
      <trkpt lat="46.54122" lon="-1.75455">
        <ele>150</ele>
        <time>2019-12-30T15:54:02Z</time>
      </trkpt>
      <trkpt lat="46.54133" lon="-1.75489">
        <ele>151</ele>
        <time>2019-12-30T15:54:11Z</time>
      </trkpt>
      <trkpt lat="46.5417" lon="-1.7553">
        <ele>150</ele>
        <time>2019-12-30T15:54:23Z</time>
      </trkpt>
      <trkpt lat="46.54193" lon="-1.75552">
        <ele>149</ele>
        <time>2019-12-30T15:54:29Z</time>
      </trkpt>
      <trkpt lat="46.54214" lon="-1.75571">
        <ele>148</ele>
        <time>2019-12-30T15:54:34Z</time>
      </trkpt>
      <trkpt lat="46.54263" lon="-1.75605">
        <ele>147</ele>
        <time>2019-12-30T15:54:44Z</time>
      </trkpt>
      <trkpt lat="46.54268" lon="-1.75608">
        <ele>147</ele>
        <time>2019-12-30T15:54:45Z</time>
      </trkpt>
      <trkpt lat="46.5429" lon="-1.75619">
        <ele>146</ele>
        <time>2019-12-30T15:54:49Z</time>
      </trkpt>
      <trkpt lat="46.54304" lon="-1.75627">
        <ele>144</ele>
        <time>2019-12-30T15:54:52Z</time>
      </trkpt>
      <trkpt lat="46.54313" lon="-1.75633">
        <ele>143</ele>
        <time>2019-12-30T15:54:54Z</time>
      </trkpt>
      <trkpt lat="46.5432" lon="-1.75641">
        <ele>143</ele>
        <time>2019-12-30T15:54:58Z</time>
      </trkpt>
      <trkpt lat="46.54315" lon="-1.75662">
        <ele>142</ele>
        <time>2019-12-30T15:55:03Z</time>
      </trkpt>
      <trkpt lat="46.54303" lon="-1.75683">
        <ele>141</ele>
        <time>2019-12-30T15:55:07Z</time>
      </trkpt>
      <trkpt lat="46.54274" lon="-1.75697">
        <ele>142</ele>
        <time>2019-12-30T15:55:14Z</time>
      </trkpt>
      <trkpt lat="46.54269" lon="-1.75699">
        <ele>143</ele>
        <time>2019-12-30T15:55:16Z</time>
      </trkpt>
      <trkpt lat="46.54264" lon="-1.75701">
        <ele>145</ele>
        <time>2019-12-30T15:55:18Z</time>
      </trkpt>
      <trkpt lat="46.54257" lon="-1.75704">
        <ele>146</ele>
        <time>2019-12-30T15:55:21Z</time>
      </trkpt>
      <trkpt lat="46.5425" lon="-1.75706">
        <ele>147</ele>
        <time>2019-12-30T15:55:24Z</time>
      </trkpt>
      <trkpt lat="46.54243" lon="-1.7571">
        <ele>148</ele>
        <time>2019-12-30T15:55:28Z</time>
      </trkpt>
      <trkpt lat="46.54237" lon="-1.75714">
        <ele>150</ele>
        <time>2019-12-30T15:55:31Z</time>
      </trkpt>
      <trkpt lat="46.54227" lon="-1.75718">
        <ele>151</ele>
        <time>2019-12-30T15:55:36Z</time>
      </trkpt>
      <trkpt lat="46.54225" lon="-1.75719">
        <ele>151</ele>
        <time>2019-12-30T15:55:37Z</time>
      </trkpt>
      <trkpt lat="46.54222" lon="-1.75719">
        <ele>152</ele>
        <time>2019-12-30T15:55:39Z</time>
      </trkpt>
      <trkpt lat="46.54221" lon="-1.75719">
        <ele>152</ele>
        <time>2019-12-30T15:55:40Z</time>
      </trkpt>
      <trkpt lat="46.5422" lon="-1.75718">
        <ele>152</ele>
        <time>2019-12-30T15:55:41Z</time>
      </trkpt>
      <trkpt lat="46.54217" lon="-1.75719">
        <ele>153</ele>
        <time>2019-12-30T15:56:58Z</time>
      </trkpt>
      <trkpt lat="46.54217" lon="-1.75722">
        <ele>153</ele>
        <time>2019-12-30T15:57:00Z</time>
      </trkpt>
      <trkpt lat="46.54255" lon="-1.75777">
        <ele>151</ele>
        <time>2019-12-30T15:57:16Z</time>
      </trkpt>
      <trkpt lat="46.54258" lon="-1.75782">
        <ele>151</ele>
        <time>2019-12-30T15:57:17Z</time>
      </trkpt>
      <trkpt lat="46.54265" lon="-1.7579">
        <ele>151</ele>
        <time>2019-12-30T15:57:19Z</time>
      </trkpt>
      <trkpt lat="46.54304" lon="-1.75846">
        <ele>150</ele>
        <time>2019-12-30T15:57:31Z</time>
      </trkpt>
      <trkpt lat="46.54346" lon="-1.75899">
        <ele>149</ele>
        <time>2019-12-30T15:57:42Z</time>
      </trkpt>
      <trkpt lat="46.54355" lon="-1.75908">
        <ele>149</ele>
        <time>2019-12-30T15:57:44Z</time>
      </trkpt>
      <trkpt lat="46.54387" lon="-1.7594">
        <ele>148</ele>
        <time>2019-12-30T15:57:51Z</time>
      </trkpt>
      <trkpt lat="46.54395" lon="-1.7595">
        <ele>148</ele>
        <time>2019-12-30T15:57:53Z</time>
      </trkpt>
      <trkpt lat="46.54426" lon="-1.7602">
        <ele>147</ele>
        <time>2019-12-30T15:58:04Z</time>
      </trkpt>
      <trkpt lat="46.54436" lon="-1.76054">
        <ele>147</ele>
        <time>2019-12-30T15:58:09Z</time>
      </trkpt>
      <trkpt lat="46.54451" lon="-1.76129">
        <ele>146</ele>
        <time>2019-12-30T15:58:19Z</time>
      </trkpt>
      <trkpt lat="46.5446" lon="-1.76205">
        <ele>146</ele>
        <time>2019-12-30T15:58:29Z</time>
      </trkpt>
      <trkpt lat="46.54465" lon="-1.76269">
        <ele>144</ele>
        <time>2019-12-30T15:58:37Z</time>
      </trkpt>
      <trkpt lat="46.54467" lon="-1.76305">
        <ele>143</ele>
        <time>2019-12-30T15:58:41Z</time>
      </trkpt>
      <trkpt lat="46.54468" lon="-1.76333">
        <ele>142</ele>
        <time>2019-12-30T15:58:44Z</time>
      </trkpt>
      <trkpt lat="46.54466" lon="-1.7635">
        <ele>142</ele>
        <time>2019-12-30T15:58:46Z</time>
      </trkpt>
      <trkpt lat="46.54444" lon="-1.76425">
        <ele>143</ele>
        <time>2019-12-30T15:58:57Z</time>
      </trkpt>
      <trkpt lat="46.54437" lon="-1.76455">
        <ele>144</ele>
        <time>2019-12-30T15:59:02Z</time>
      </trkpt>
      <trkpt lat="46.54427" lon="-1.76489">
        <ele>145</ele>
        <time>2019-12-30T15:59:08Z</time>
      </trkpt>
      <trkpt lat="46.54395" lon="-1.76552">
        <ele>146</ele>
        <time>2019-12-30T15:59:22Z</time>
      </trkpt>
      <trkpt lat="46.54373" lon="-1.76568">
        <ele>146</ele>
        <time>2019-12-30T15:59:28Z</time>
      </trkpt>
      <trkpt lat="46.54358" lon="-1.76581">
        <ele>148</ele>
        <time>2019-12-30T15:59:32Z</time>
      </trkpt>
      <trkpt lat="46.54315" lon="-1.76629">
        <ele>147</ele>
        <time>2019-12-30T15:59:45Z</time>
      </trkpt>
      <trkpt lat="46.54291" lon="-1.76654">
        <ele>146</ele>
        <time>2019-12-30T15:59:52Z</time>
      </trkpt>
      <trkpt lat="46.54259" lon="-1.76692">
        <ele>148</ele>
        <time>2019-12-30T16:00:03Z</time>
      </trkpt>
      <trkpt lat="46.54225" lon="-1.76736">
        <ele>149</ele>
        <time>2019-12-30T16:00:16Z</time>
      </trkpt>
      <trkpt lat="46.54202" lon="-1.76765">
        <ele>149</ele>
        <time>2019-12-30T16:00:25Z</time>
      </trkpt>
      <trkpt lat="46.54193" lon="-1.76846">
        <ele>148</ele>
        <time>2019-12-30T16:00:40Z</time>
      </trkpt>
      <trkpt lat="46.54186" lon="-1.76904">
        <ele>148</ele>
        <time>2019-12-30T16:00:50Z</time>
      </trkpt>
      <trkpt lat="46.54185" lon="-1.7693">
        <ele>149</ele>
        <time>2019-12-30T16:00:54Z</time>
      </trkpt>
      <trkpt lat="46.54186" lon="-1.7695">
        <ele>148</ele>
        <time>2019-12-30T16:00:57Z</time>
      </trkpt>
      <trkpt lat="46.54187" lon="-1.76971">
        <ele>148</ele>
        <time>2019-12-30T16:01:00Z</time>
      </trkpt>
      <trkpt lat="46.54188" lon="-1.76977">
        <ele>147</ele>
        <time>2019-12-30T16:01:01Z</time>
      </trkpt>
      <trkpt lat="46.5419" lon="-1.76996">
        <ele>146</ele>
        <time>2019-12-30T16:01:04Z</time>
      </trkpt>
      <trkpt lat="46.54191" lon="-1.77029">
        <ele>147</ele>
        <time>2019-12-30T16:01:13Z</time>
      </trkpt>
      <trkpt lat="46.5419" lon="-1.7703">
        <ele>147</ele>
        <time>2019-12-30T16:01:16Z</time>
      </trkpt>
      <trkpt lat="46.54185" lon="-1.77034">
        <ele>147</ele>
        <time>2019-12-30T16:01:19Z</time>
      </trkpt>
      <trkpt lat="46.54163" lon="-1.77056">
        <ele>148</ele>
        <time>2019-12-30T16:01:29Z</time>
      </trkpt>
      <trkpt lat="46.54174" lon="-1.77138">
        <ele>147</ele>
        <time>2019-12-30T16:01:44Z</time>
      </trkpt>
      <trkpt lat="46.54175" lon="-1.77179">
        <ele>146</ele>
        <time>2019-12-30T16:01:51Z</time>
      </trkpt>
      <trkpt lat="46.54189" lon="-1.77197">
        <ele>145</ele>
        <time>2019-12-30T16:01:57Z</time>
      </trkpt>
      <trkpt lat="46.54199" lon="-1.77209">
        <ele>144</ele>
        <time>2019-12-30T16:02:02Z</time>
      </trkpt>
      <trkpt lat="46.54195" lon="-1.77223">
        <ele>144</ele>
        <time>2019-12-30T16:02:07Z</time>
      </trkpt>
      <trkpt lat="46.54196" lon="-1.77228">
        <ele>144</ele>
        <time>2019-12-30T16:02:09Z</time>
      </trkpt>
      <trkpt lat="46.54211" lon="-1.77209">
        <ele>144</ele>
        <time>2019-12-30T16:02:17Z</time>
      </trkpt>
      <trkpt lat="46.54214" lon="-1.77212">
        <ele>144</ele>
        <time>2019-12-30T16:02:19Z</time>
      </trkpt>
      <trkpt lat="46.54224" lon="-1.77249">
        <ele>144</ele>
        <time>2019-12-30T16:02:27Z</time>
      </trkpt>
      <trkpt lat="46.54234" lon="-1.77299">
        <ele>144</ele>
        <time>2019-12-30T16:02:36Z</time>
      </trkpt>
      <trkpt lat="46.54237" lon="-1.7733">
        <ele>144</ele>
        <time>2019-12-30T16:02:41Z</time>
      </trkpt>
      <trkpt lat="46.54239" lon="-1.7735">
        <ele>144</ele>
        <time>2019-12-30T16:02:44Z</time>
      </trkpt>
      <trkpt lat="46.54239" lon="-1.77363">
        <ele>144</ele>
        <time>2019-12-30T16:02:46Z</time>
      </trkpt>
      <trkpt lat="46.54245" lon="-1.77413">
        <ele>143</ele>
        <time>2019-12-30T16:02:54Z</time>
      </trkpt>
      <trkpt lat="46.54238" lon="-1.77445">
        <ele>143</ele>
        <time>2019-12-30T16:03:00Z</time>
      </trkpt>
      <trkpt lat="46.54225" lon="-1.77464">
        <ele>142</ele>
        <time>2019-12-30T16:03:07Z</time>
      </trkpt>
      <trkpt lat="46.54224" lon="-1.77467">
        <ele>142</ele>
        <time>2019-12-30T16:03:08Z</time>
      </trkpt>
      <trkpt lat="46.54197" lon="-1.77496">
        <ele>141</ele>
        <time>2019-12-30T16:03:19Z</time>
      </trkpt>
      <trkpt lat="46.5415" lon="-1.77541">
        <ele>140</ele>
        <time>2019-12-30T16:03:35Z</time>
      </trkpt>
      <trkpt lat="46.54132" lon="-1.77561">
        <ele>141</ele>
        <time>2019-12-30T16:03:43Z</time>
      </trkpt>
      <trkpt lat="46.54142" lon="-1.77616">
        <ele>139</ele>
        <time>2019-12-30T16:03:53Z</time>
      </trkpt>
      <trkpt lat="46.54159" lon="-1.77694">
        <ele>140</ele>
        <time>2019-12-30T16:04:06Z</time>
      </trkpt>
      <trkpt lat="46.54174" lon="-1.77773">
        <ele>139</ele>
        <time>2019-12-30T16:04:18Z</time>
      </trkpt>
      <trkpt lat="46.54194" lon="-1.77834">
        <ele>139</ele>
        <time>2019-12-30T16:04:29Z</time>
      </trkpt>
      <trkpt lat="46.54213" lon="-1.77869">
        <ele>139</ele>
        <time>2019-12-30T16:04:36Z</time>
      </trkpt>
      <trkpt lat="46.54237" lon="-1.7789">
        <ele>140</ele>
        <time>2019-12-30T16:04:43Z</time>
      </trkpt>
      <trkpt lat="46.54251" lon="-1.77902">
        <ele>139</ele>
        <time>2019-12-30T16:04:47Z</time>
      </trkpt>
      <trkpt lat="46.54264" lon="-1.77919">
        <ele>139</ele>
        <time>2019-12-30T16:04:51Z</time>
      </trkpt>
      <trkpt lat="46.54286" lon="-1.7799">
        <ele>140</ele>
        <time>2019-12-30T16:05:03Z</time>
      </trkpt>
      <trkpt lat="46.54306" lon="-1.78069">
        <ele>140</ele>
        <time>2019-12-30T16:05:17Z</time>
      </trkpt>
      <trkpt lat="46.5431" lon="-1.78112">
        <ele>139</ele>
        <time>2019-12-30T16:05:32Z</time>
      </trkpt>
      <trkpt lat="46.54304" lon="-1.78148">
        <ele>139</ele>
        <time>2019-12-30T16:09:06Z</time>
      </trkpt>
      <trkpt lat="46.54287" lon="-1.78226">
        <ele>139</ele>
        <time>2019-12-30T16:09:21Z</time>
      </trkpt>
      <trkpt lat="46.5427" lon="-1.78302">
        <ele>139</ele>
        <time>2019-12-30T16:09:34Z</time>
      </trkpt>
      <trkpt lat="46.54263" lon="-1.78381">
        <ele>139</ele>
        <time>2019-12-30T16:09:49Z</time>
      </trkpt>
      <trkpt lat="46.54254" lon="-1.78422">
        <ele>138</ele>
        <time>2019-12-30T16:09:57Z</time>
      </trkpt>
      <trkpt lat="46.54237" lon="-1.78498">
        <ele>139</ele>
        <time>2019-12-30T16:10:10Z</time>
      </trkpt>
      <trkpt lat="46.54236" lon="-1.78505">
        <ele>140</ele>
        <time>2019-12-30T16:10:11Z</time>
      </trkpt>
      <trkpt lat="46.54228" lon="-1.78582">
        <ele>140</ele>
        <time>2019-12-30T16:10:23Z</time>
      </trkpt>
      <trkpt lat="46.5422" lon="-1.78664">
        <ele>140</ele>
        <time>2019-12-30T16:10:36Z</time>
      </trkpt>
      <trkpt lat="46.54218" lon="-1.78681">
        <ele>139</ele>
        <time>2019-12-30T16:10:39Z</time>
      </trkpt>
      <trkpt lat="46.54217" lon="-1.78707">
        <ele>138</ele>
        <time>2019-12-30T16:10:43Z</time>
      </trkpt>
      <trkpt lat="46.54209" lon="-1.78785">
        <ele>138</ele>
        <time>2019-12-30T16:10:55Z</time>
      </trkpt>
      <trkpt lat="46.5421" lon="-1.78847">
        <ele>138</ele>
        <time>2019-12-30T16:11:05Z</time>
      </trkpt>
      <trkpt lat="46.54213" lon="-1.78925">
        <ele>138</ele>
        <time>2019-12-30T16:11:18Z</time>
      </trkpt>
      <trkpt lat="46.54219" lon="-1.79008">
        <ele>138</ele>
        <time>2019-12-30T16:11:31Z</time>
      </trkpt>
      <trkpt lat="46.54227" lon="-1.79064">
        <ele>138</ele>
        <time>2019-12-30T16:11:40Z</time>
      </trkpt>
      <trkpt lat="46.54232" lon="-1.79101">
        <ele>139</ele>
        <time>2019-12-30T16:11:46Z</time>
      </trkpt>
      <trkpt lat="46.54234" lon="-1.79113">
        <ele>139</ele>
        <time>2019-12-30T16:11:48Z</time>
      </trkpt>
      <trkpt lat="46.54236" lon="-1.79126">
        <ele>140</ele>
        <time>2019-12-30T16:11:50Z</time>
      </trkpt>
      <trkpt lat="46.54255" lon="-1.79203">
        <ele>140</ele>
        <time>2019-12-30T16:12:03Z</time>
      </trkpt>
      <trkpt lat="46.54271" lon="-1.79246">
        <ele>140</ele>
        <time>2019-12-30T16:12:11Z</time>
      </trkpt>
      <trkpt lat="46.54313" lon="-1.79299">
        <ele>140</ele>
        <time>2019-12-30T16:12:25Z</time>
      </trkpt>
      <trkpt lat="46.54358" lon="-1.7935">
        <ele>140</ele>
        <time>2019-12-30T16:12:39Z</time>
      </trkpt>
      <trkpt lat="46.54364" lon="-1.79418">
        <ele>139</ele>
        <time>2019-12-30T16:12:55Z</time>
      </trkpt>
      <trkpt lat="46.54332" lon="-1.79483">
        <ele>139</ele>
        <time>2019-12-30T16:13:11Z</time>
      </trkpt>
      <trkpt lat="46.543" lon="-1.79546">
        <ele>139</ele>
        <time>2019-12-30T16:13:26Z</time>
      </trkpt>
      <trkpt lat="46.54294" lon="-1.79559">
        <ele>139</ele>
        <time>2019-12-30T16:13:29Z</time>
      </trkpt>
      <trkpt lat="46.54269" lon="-1.79628">
        <ele>140</ele>
        <time>2019-12-30T16:13:43Z</time>
      </trkpt>
      <trkpt lat="46.54261" lon="-1.79642">
        <ele>140</ele>
        <time>2019-12-30T16:13:46Z</time>
      </trkpt>
      <trkpt lat="46.54244" lon="-1.79672">
        <ele>141</ele>
        <time>2019-12-30T16:13:53Z</time>
      </trkpt>
      <trkpt lat="46.54217" lon="-1.79734">
        <ele>142</ele>
        <time>2019-12-30T16:14:11Z</time>
      </trkpt>
      <trkpt lat="46.54226" lon="-1.79758">
        <ele>143</ele>
        <time>2019-12-30T16:14:19Z</time>
      </trkpt>
      <trkpt lat="46.54229" lon="-1.79762">
        <ele>143</ele>
        <time>2019-12-30T16:14:21Z</time>
      </trkpt>
      <trkpt lat="46.54232" lon="-1.79761">
        <ele>143</ele>
        <time>2019-12-30T16:14:23Z</time>
      </trkpt>
      <trkpt lat="46.54265" lon="-1.79696">
        <ele>142</ele>
        <time>2019-12-30T16:14:43Z</time>
      </trkpt>
      <trkpt lat="46.54271" lon="-1.79674">
        <ele>141</ele>
        <time>2019-12-30T16:14:48Z</time>
      </trkpt>
      <trkpt lat="46.54303" lon="-1.79611">
        <ele>140</ele>
        <time>2019-12-30T16:15:01Z</time>
      </trkpt>
      <trkpt lat="46.54334" lon="-1.79547">
        <ele>139</ele>
        <time>2019-12-30T16:15:15Z</time>
      </trkpt>
      <trkpt lat="46.54368" lon="-1.79479">
        <ele>139</ele>
        <time>2019-12-30T16:15:29Z</time>
      </trkpt>
      <trkpt lat="46.54375" lon="-1.79465">
        <ele>139</ele>
        <time>2019-12-30T16:15:32Z</time>
      </trkpt>
      <trkpt lat="46.54405" lon="-1.79402">
        <ele>140</ele>
        <time>2019-12-30T16:15:44Z</time>
      </trkpt>
      <trkpt lat="46.54418" lon="-1.79377">
        <ele>140</ele>
        <time>2019-12-30T16:15:49Z</time>
      </trkpt>
      <trkpt lat="46.54448" lon="-1.79308">
        <ele>139</ele>
        <time>2019-12-30T16:16:05Z</time>
      </trkpt>
      <trkpt lat="46.5448" lon="-1.79244">
        <ele>139</ele>
        <time>2019-12-30T16:16:20Z</time>
      </trkpt>
      <trkpt lat="46.54512" lon="-1.79178">
        <ele>140</ele>
        <time>2019-12-30T16:16:37Z</time>
      </trkpt>
      <trkpt lat="46.54524" lon="-1.79148">
        <ele>138</ele>
        <time>2019-12-30T16:16:46Z</time>
      </trkpt>
      <trkpt lat="46.54557" lon="-1.79081">
        <ele>139</ele>
        <time>2019-12-30T16:17:03Z</time>
      </trkpt>
      <trkpt lat="46.54588" lon="-1.79015">
        <ele>139</ele>
        <time>2019-12-30T16:17:20Z</time>
      </trkpt>
      <trkpt lat="46.54602" lon="-1.78987">
        <ele>139</ele>
        <time>2019-12-30T16:17:27Z</time>
      </trkpt>
      <trkpt lat="46.54634" lon="-1.78923">
        <ele>139</ele>
        <time>2019-12-30T16:17:42Z</time>
      </trkpt>
      <trkpt lat="46.54655" lon="-1.78885">
        <ele>139</ele>
        <time>2019-12-30T16:17:51Z</time>
      </trkpt>
      <trkpt lat="46.54699" lon="-1.78837">
        <ele>139</ele>
        <time>2019-12-30T16:18:07Z</time>
      </trkpt>
      <trkpt lat="46.54751" lon="-1.78809">
        <ele>139</ele>
        <time>2019-12-30T16:18:23Z</time>
      </trkpt>
      <trkpt lat="46.54805" lon="-1.78799">
        <ele>139</ele>
        <time>2019-12-30T16:18:39Z</time>
      </trkpt>
      <trkpt lat="46.54824" lon="-1.78801">
        <ele>138</ele>
        <time>2019-12-30T16:18:45Z</time>
      </trkpt>
      <trkpt lat="46.54879" lon="-1.78812">
        <ele>139</ele>
        <time>2019-12-30T16:19:00Z</time>
      </trkpt>
      <trkpt lat="46.54933" lon="-1.78825">
        <ele>139</ele>
        <time>2019-12-30T16:19:15Z</time>
      </trkpt>
      <trkpt lat="46.54988" lon="-1.78837">
        <ele>139</ele>
        <time>2019-12-30T16:19:30Z</time>
      </trkpt>
      <trkpt lat="46.55045" lon="-1.78849">
        <ele>138</ele>
        <time>2019-12-30T16:19:44Z</time>
      </trkpt>
      <trkpt lat="46.55058" lon="-1.78853">
        <ele>137</ele>
        <time>2019-12-30T16:19:47Z</time>
      </trkpt>
      <trkpt lat="46.55115" lon="-1.78868">
        <ele>138</ele>
        <time>2019-12-30T16:20:01Z</time>
      </trkpt>
      <trkpt lat="46.55171" lon="-1.78883">
        <ele>138</ele>
        <time>2019-12-30T16:20:16Z</time>
      </trkpt>
      <trkpt lat="46.55227" lon="-1.78887">
        <ele>138</ele>
        <time>2019-12-30T16:20:31Z</time>
      </trkpt>
      <trkpt lat="46.55277" lon="-1.78857">
        <ele>138</ele>
        <time>2019-12-30T16:20:46Z</time>
      </trkpt>
      <trkpt lat="46.55322" lon="-1.78893">
        <ele>138</ele>
        <time>2019-12-30T16:21:01Z</time>
      </trkpt>
      <trkpt lat="46.55342" lon="-1.78922">
        <ele>138</ele>
        <time>2019-12-30T16:21:09Z</time>
      </trkpt>
      <trkpt lat="46.5538" lon="-1.78981">
        <ele>139</ele>
        <time>2019-12-30T16:21:25Z</time>
      </trkpt>
      <trkpt lat="46.55416" lon="-1.7904">
        <ele>139</ele>
        <time>2019-12-30T16:21:40Z</time>
      </trkpt>
      <trkpt lat="46.55452" lon="-1.79101">
        <ele>138</ele>
        <time>2019-12-30T16:21:56Z</time>
      </trkpt>
      <trkpt lat="46.55458" lon="-1.79108">
        <ele>139</ele>
        <time>2019-12-30T16:22:01Z</time>
      </trkpt>
      <trkpt lat="46.55459" lon="-1.79107">
        <ele>140</ele>
        <time>2019-12-30T16:22:02Z</time>
      </trkpt>
      <trkpt lat="46.5546" lon="-1.79106">
        <ele>140</ele>
        <time>2019-12-30T16:22:03Z</time>
      </trkpt>
      <trkpt lat="46.55463" lon="-1.79101">
        <ele>140</ele>
        <time>2019-12-30T16:22:17Z</time>
      </trkpt>
      <trkpt lat="46.55485" lon="-1.79109">
        <ele>140</ele>
        <time>2019-12-30T16:25:09Z</time>
      </trkpt>
      <trkpt lat="46.55516" lon="-1.79162">
        <ele>138</ele>
        <time>2019-12-30T16:25:22Z</time>
      </trkpt>
      <trkpt lat="46.55553" lon="-1.79197">
        <ele>138</ele>
        <time>2019-12-30T16:25:33Z</time>
      </trkpt>
      <trkpt lat="46.55562" lon="-1.792">
        <ele>138</ele>
        <time>2019-12-30T16:25:35Z</time>
      </trkpt>
      <trkpt lat="46.5557" lon="-1.79199">
        <ele>138</ele>
        <time>2019-12-30T16:25:37Z</time>
      </trkpt>
      <trkpt lat="46.55576" lon="-1.79191">
        <ele>138</ele>
        <time>2019-12-30T16:25:39Z</time>
      </trkpt>
      <trkpt lat="46.55589" lon="-1.79177">
        <ele>138</ele>
        <time>2019-12-30T16:25:44Z</time>
      </trkpt>
      <trkpt lat="46.55635" lon="-1.79203">
        <ele>138</ele>
        <time>2019-12-30T16:25:56Z</time>
      </trkpt>
      <trkpt lat="46.55649" lon="-1.792">
        <ele>138</ele>
        <time>2019-12-30T16:25:59Z</time>
      </trkpt>
      <trkpt lat="46.55657" lon="-1.79195">
        <ele>138</ele>
        <time>2019-12-30T16:26:01Z</time>
      </trkpt>
      <trkpt lat="46.55695" lon="-1.79148">
        <ele>138</ele>
        <time>2019-12-30T16:26:12Z</time>
      </trkpt>
      <trkpt lat="46.55697" lon="-1.79136">
        <ele>138</ele>
        <time>2019-12-30T16:26:14Z</time>
      </trkpt>
      <trkpt lat="46.55697" lon="-1.79122">
        <ele>138</ele>
        <time>2019-12-30T16:26:16Z</time>
      </trkpt>
      <trkpt lat="46.55699" lon="-1.79109">
        <ele>138</ele>
        <time>2019-12-30T16:26:18Z</time>
      </trkpt>
      <trkpt lat="46.55703" lon="-1.79097">
        <ele>138</ele>
        <time>2019-12-30T16:26:20Z</time>
      </trkpt>
      <trkpt lat="46.55709" lon="-1.79088">
        <ele>138</ele>
        <time>2019-12-30T16:26:22Z</time>
      </trkpt>
      <trkpt lat="46.55755" lon="-1.79035">
        <ele>139</ele>
        <time>2019-12-30T16:26:35Z</time>
      </trkpt>
      <trkpt lat="46.55798" lon="-1.7898">
        <ele>139</ele>
        <time>2019-12-30T16:26:48Z</time>
      </trkpt>
      <trkpt lat="46.55841" lon="-1.78929">
        <ele>139</ele>
        <time>2019-12-30T16:27:02Z</time>
      </trkpt>
      <trkpt lat="46.55879" lon="-1.7889">
        <ele>138</ele>
        <time>2019-12-30T16:27:17Z</time>
      </trkpt>
      <trkpt lat="46.55894" lon="-1.78911">
        <ele>138</ele>
        <time>2019-12-30T16:27:26Z</time>
      </trkpt>
      <trkpt lat="46.55892" lon="-1.78917">
        <ele>138</ele>
        <time>2019-12-30T16:27:29Z</time>
      </trkpt>
      <trkpt lat="46.5588" lon="-1.78938">
        <ele>138</ele>
        <time>2019-12-30T16:27:42Z</time>
      </trkpt>
      <trkpt lat="46.5588" lon="-1.78936">
        <ele>138</ele>
        <time>2019-12-30T16:27:45Z</time>
      </trkpt>
      <trkpt lat="46.55892" lon="-1.78918">
        <ele>139</ele>
        <time>2019-12-30T16:27:55Z</time>
      </trkpt>
      <trkpt lat="46.55892" lon="-1.78914">
        <ele>139</ele>
        <time>2019-12-30T16:27:57Z</time>
      </trkpt>
      <trkpt lat="46.55893" lon="-1.78916">
        <ele>139</ele>
        <time>2019-12-30T16:28:01Z</time>
      </trkpt>
      <trkpt lat="46.55888" lon="-1.78929">
        <ele>138</ele>
        <time>2019-12-30T16:28:17Z</time>
      </trkpt>
      <trkpt lat="46.55876" lon="-1.7894">
        <ele>139</ele>
        <time>2019-12-30T16:42:13Z</time>
      </trkpt>
      <trkpt lat="46.55878" lon="-1.78938">
        <ele>138</ele>
        <time>2019-12-30T16:42:16Z</time>
      </trkpt>
      <trkpt lat="46.559" lon="-1.78913">
        <ele>139</ele>
        <time>2019-12-30T16:42:30Z</time>
      </trkpt>
      <trkpt lat="46.55937" lon="-1.78943">
        <ele>139</ele>
        <time>2019-12-30T16:42:44Z</time>
      </trkpt>
      <trkpt lat="46.55989" lon="-1.78925">
        <ele>139</ele>
        <time>2019-12-30T16:43:03Z</time>
      </trkpt>
      <trkpt lat="46.56042" lon="-1.78901">
        <ele>139</ele>
        <time>2019-12-30T16:43:21Z</time>
      </trkpt>
      <trkpt lat="46.56079" lon="-1.78913">
        <ele>139</ele>
        <time>2019-12-30T16:43:33Z</time>
      </trkpt>
      <trkpt lat="46.56129" lon="-1.78947">
        <ele>139</ele>
        <time>2019-12-30T16:43:49Z</time>
      </trkpt>
      <trkpt lat="46.56164" lon="-1.79008">
        <ele>139</ele>
        <time>2019-12-30T16:44:06Z</time>
      </trkpt>
      <trkpt lat="46.56205" lon="-1.79057">
        <ele>139</ele>
        <time>2019-12-30T16:44:21Z</time>
      </trkpt>
      <trkpt lat="46.5622" lon="-1.79066">
        <ele>138</ele>
        <time>2019-12-30T16:44:26Z</time>
      </trkpt>
      <trkpt lat="46.56219" lon="-1.79079">
        <ele>138</ele>
        <time>2019-12-30T16:44:29Z</time>
      </trkpt>
      <trkpt lat="46.5621" lon="-1.79106">
        <ele>138</ele>
        <time>2019-12-30T16:44:35Z</time>
      </trkpt>
      <trkpt lat="46.56227" lon="-1.7918">
        <ele>139</ele>
        <time>2019-12-30T16:44:51Z</time>
      </trkpt>
      <trkpt lat="46.56243" lon="-1.79255">
        <ele>139</ele>
        <time>2019-12-30T16:45:07Z</time>
      </trkpt>
      <trkpt lat="46.56266" lon="-1.79296">
        <ele>139</ele>
        <time>2019-12-30T16:45:28Z</time>
      </trkpt>
      <trkpt lat="46.56269" lon="-1.79303">
        <ele>139</ele>
        <time>2019-12-30T16:45:31Z</time>
      </trkpt>
      <trkpt lat="46.56309" lon="-1.79356">
        <ele>139</ele>
        <time>2019-12-30T16:45:48Z</time>
      </trkpt>
      <trkpt lat="46.56316" lon="-1.79363">
        <ele>139</ele>
        <time>2019-12-30T16:45:50Z</time>
      </trkpt>
      <trkpt lat="46.56321" lon="-1.79374">
        <ele>139</ele>
        <time>2019-12-30T16:45:52Z</time>
      </trkpt>
      <trkpt lat="46.56299" lon="-1.79445">
        <ele>138</ele>
        <time>2019-12-30T16:46:06Z</time>
      </trkpt>
      <trkpt lat="46.56273" lon="-1.79517">
        <ele>138</ele>
        <time>2019-12-30T16:46:21Z</time>
      </trkpt>
      <trkpt lat="46.56261" lon="-1.79563">
        <ele>138</ele>
        <time>2019-12-30T16:46:30Z</time>
      </trkpt>
      <trkpt lat="46.56268" lon="-1.79569">
        <ele>138</ele>
        <time>2019-12-30T16:46:32Z</time>
      </trkpt>
      <trkpt lat="46.56323" lon="-1.79569">
        <ele>139</ele>
        <time>2019-12-30T16:46:45Z</time>
      </trkpt>
      <trkpt lat="46.56377" lon="-1.79568">
        <ele>139</ele>
        <time>2019-12-30T16:46:58Z</time>
      </trkpt>
      <trkpt lat="46.56431" lon="-1.79555">
        <ele>139</ele>
        <time>2019-12-30T16:47:12Z</time>
      </trkpt>
      <trkpt lat="46.56485" lon="-1.79556">
        <ele>139</ele>
        <time>2019-12-30T16:47:25Z</time>
      </trkpt>
      <trkpt lat="46.56543" lon="-1.79554">
        <ele>138</ele>
        <time>2019-12-30T16:47:38Z</time>
      </trkpt>
      <trkpt lat="46.5657" lon="-1.79555">
        <ele>138</ele>
        <time>2019-12-30T16:47:44Z</time>
      </trkpt>
      <trkpt lat="46.56579" lon="-1.79555">
        <ele>138</ele>
        <time>2019-12-30T16:47:46Z</time>
      </trkpt>
      <trkpt lat="46.56601" lon="-1.79554">
        <ele>138</ele>
        <time>2019-12-30T16:47:51Z</time>
      </trkpt>
      <trkpt lat="46.56632" lon="-1.7955">
        <ele>139</ele>
        <time>2019-12-30T16:47:58Z</time>
      </trkpt>
      <trkpt lat="46.56648" lon="-1.79549">
        <ele>139</ele>
        <time>2019-12-30T16:48:02Z</time>
      </trkpt>
      <trkpt lat="46.56656" lon="-1.79544">
        <ele>139</ele>
        <time>2019-12-30T16:48:04Z</time>
      </trkpt>
      <trkpt lat="46.56668" lon="-1.79527">
        <ele>138</ele>
        <time>2019-12-30T16:48:08Z</time>
      </trkpt>
      <trkpt lat="46.56676" lon="-1.79524">
        <ele>138</ele>
        <time>2019-12-30T16:48:10Z</time>
      </trkpt>
      <trkpt lat="46.5668" lon="-1.79532">
        <ele>138</ele>
        <time>2019-12-30T16:48:12Z</time>
      </trkpt>
      <trkpt lat="46.56689" lon="-1.79588">
        <ele>138</ele>
        <time>2019-12-30T16:48:22Z</time>
      </trkpt>
      <trkpt lat="46.56696" lon="-1.79601">
        <ele>138</ele>
        <time>2019-12-30T16:48:25Z</time>
      </trkpt>
      <trkpt lat="46.56707" lon="-1.79611">
        <ele>138</ele>
        <time>2019-12-30T16:48:28Z</time>
      </trkpt>
      <trkpt lat="46.5672" lon="-1.79612">
        <ele>138</ele>
        <time>2019-12-30T16:48:31Z</time>
      </trkpt>
      <trkpt lat="46.56749" lon="-1.79608">
        <ele>138</ele>
        <time>2019-12-30T16:48:38Z</time>
      </trkpt>
      <trkpt lat="46.56757" lon="-1.79603">
        <ele>139</ele>
        <time>2019-12-30T16:48:40Z</time>
      </trkpt>
      <trkpt lat="46.56766" lon="-1.79604">
        <ele>138</ele>
        <time>2019-12-30T16:48:42Z</time>
      </trkpt>
      <trkpt lat="46.56786" lon="-1.79677">
        <ele>138</ele>
        <time>2019-12-30T16:48:55Z</time>
      </trkpt>
      <trkpt lat="46.56806" lon="-1.79753">
        <ele>139</ele>
        <time>2019-12-30T16:49:08Z</time>
      </trkpt>
      <trkpt lat="46.56813" lon="-1.79776">
        <ele>138</ele>
        <time>2019-12-30T16:49:12Z</time>
      </trkpt>
      <trkpt lat="46.5683" lon="-1.79855">
        <ele>138</ele>
        <time>2019-12-30T16:49:25Z</time>
      </trkpt>
      <trkpt lat="46.56853" lon="-1.79929">
        <ele>138</ele>
        <time>2019-12-30T16:49:39Z</time>
      </trkpt>
      <trkpt lat="46.5688" lon="-1.7994">
        <ele>138</ele>
        <time>2019-12-30T16:49:48Z</time>
      </trkpt>
      <trkpt lat="46.56907" lon="-1.79912">
        <ele>138</ele>
        <time>2019-12-30T16:49:56Z</time>
      </trkpt>
      <trkpt lat="46.56951" lon="-1.79863">
        <ele>139</ele>
        <time>2019-12-30T16:50:12Z</time>
      </trkpt>
      <trkpt lat="46.56951" lon="-1.79851">
        <ele>138</ele>
        <time>2019-12-30T16:50:15Z</time>
      </trkpt>
      <trkpt lat="46.56931" lon="-1.79812">
        <ele>139</ele>
        <time>2019-12-30T16:50:23Z</time>
      </trkpt>
      <trkpt lat="46.5693" lon="-1.798">
        <ele>139</ele>
        <time>2019-12-30T16:50:25Z</time>
      </trkpt>
      <trkpt lat="46.56935" lon="-1.7979">
        <ele>139</ele>
        <time>2019-12-30T16:50:27Z</time>
      </trkpt>
      <trkpt lat="46.56971" lon="-1.79729">
        <ele>139</ele>
        <time>2019-12-30T16:50:40Z</time>
      </trkpt>
      <trkpt lat="46.57002" lon="-1.79695">
        <ele>139</ele>
        <time>2019-12-30T16:50:49Z</time>
      </trkpt>
      <trkpt lat="46.57031" lon="-1.79677">
        <ele>138</ele>
        <time>2019-12-30T16:50:56Z</time>
      </trkpt>
      <trkpt lat="46.57081" lon="-1.79648">
        <ele>139</ele>
        <time>2019-12-30T16:51:08Z</time>
      </trkpt>
      <trkpt lat="46.57138" lon="-1.79631">
        <ele>138</ele>
        <time>2019-12-30T16:51:21Z</time>
      </trkpt>
      <trkpt lat="46.57155" lon="-1.79626">
        <ele>138</ele>
        <time>2019-12-30T16:51:25Z</time>
      </trkpt>
      <trkpt lat="46.57193" lon="-1.79597">
        <ele>138</ele>
        <time>2019-12-30T16:51:36Z</time>
      </trkpt>
      <trkpt lat="46.57226" lon="-1.79581">
        <ele>139</ele>
        <time>2019-12-30T16:51:44Z</time>
      </trkpt>
      <trkpt lat="46.57279" lon="-1.79552">
        <ele>139</ele>
        <time>2019-12-30T16:51:58Z</time>
      </trkpt>
      <trkpt lat="46.57307" lon="-1.7954">
        <ele>139</ele>
        <time>2019-12-30T16:52:07Z</time>
      </trkpt>
      <trkpt lat="46.57303" lon="-1.79489">
        <ele>139</ele>
        <time>2019-12-30T16:52:16Z</time>
      </trkpt>
      <trkpt lat="46.5731" lon="-1.79454">
        <ele>139</ele>
        <time>2019-12-30T16:52:22Z</time>
      </trkpt>
      <trkpt lat="46.57295" lon="-1.79374">
        <ele>139</ele>
        <time>2019-12-30T16:52:38Z</time>
      </trkpt>
      <trkpt lat="46.57287" lon="-1.79352">
        <ele>139</ele>
        <time>2019-12-30T16:52:42Z</time>
      </trkpt>
      <trkpt lat="46.57283" lon="-1.7934">
        <ele>139</ele>
        <time>2019-12-30T16:52:44Z</time>
      </trkpt>
      <trkpt lat="46.57281" lon="-1.79323">
        <ele>139</ele>
        <time>2019-12-30T16:52:47Z</time>
      </trkpt>
      <trkpt lat="46.57294" lon="-1.79245">
        <ele>138</ele>
        <time>2019-12-30T16:53:02Z</time>
      </trkpt>
      <trkpt lat="46.57297" lon="-1.79182">
        <ele>138</ele>
        <time>2019-12-30T16:53:38Z</time>
      </trkpt>
      <trkpt lat="46.57299" lon="-1.79178">
        <ele>138</ele>
        <time>2019-12-30T16:54:56Z</time>
      </trkpt>
      <trkpt lat="46.57307" lon="-1.79176">
        <ele>138</ele>
        <time>2019-12-30T16:54:59Z</time>
      </trkpt>
      <trkpt lat="46.57328" lon="-1.79168">
        <ele>138</ele>
        <time>2019-12-30T16:55:05Z</time>
      </trkpt>
      <trkpt lat="46.57375" lon="-1.79124">
        <ele>138</ele>
        <time>2019-12-30T16:55:19Z</time>
      </trkpt>
      <trkpt lat="46.5739" lon="-1.79113">
        <ele>138</ele>
        <time>2019-12-30T16:55:23Z</time>
      </trkpt>
      <trkpt lat="46.57442" lon="-1.79084">
        <ele>138</ele>
        <time>2019-12-30T16:55:37Z</time>
      </trkpt>
      <trkpt lat="46.57473" lon="-1.79063">
        <ele>138</ele>
        <time>2019-12-30T16:55:46Z</time>
      </trkpt>
      <trkpt lat="46.57482" lon="-1.79064">
        <ele>138</ele>
        <time>2019-12-30T16:55:48Z</time>
      </trkpt>
      <trkpt lat="46.57528" lon="-1.79099">
        <ele>140</ele>
        <time>2019-12-30T16:56:00Z</time>
      </trkpt>
      <trkpt lat="46.57551" lon="-1.79124">
        <ele>141</ele>
        <time>2019-12-30T16:56:07Z</time>
      </trkpt>
      <trkpt lat="46.57571" lon="-1.79147">
        <ele>142</ele>
        <time>2019-12-30T16:56:13Z</time>
      </trkpt>
      <trkpt lat="46.57614" lon="-1.79191">
        <ele>143</ele>
        <time>2019-12-30T16:57:01Z</time>
      </trkpt>
      <trkpt lat="46.5762" lon="-1.79187">
        <ele>143</ele>
        <time>2019-12-30T16:57:05Z</time>
      </trkpt>
      <trkpt lat="46.57673" lon="-1.79175">
        <ele>143</ele>
        <time>2019-12-30T16:57:23Z</time>
      </trkpt>
      <trkpt lat="46.57728" lon="-1.79176">
        <ele>143</ele>
        <time>2019-12-30T16:57:42Z</time>
      </trkpt>
      <trkpt lat="46.5778" lon="-1.79208">
        <ele>143</ele>
        <time>2019-12-30T16:58:02Z</time>
      </trkpt>
      <trkpt lat="46.5783" lon="-1.79239">
        <ele>143</ele>
        <time>2019-12-30T16:58:22Z</time>
      </trkpt>
      <trkpt lat="46.57868" lon="-1.79271">
        <ele>142</ele>
        <time>2019-12-30T16:58:36Z</time>
      </trkpt>
      <trkpt lat="46.57919" lon="-1.79309">
        <ele>142</ele>
        <time>2019-12-30T16:58:53Z</time>
      </trkpt>
      <trkpt lat="46.57974" lon="-1.79307">
        <ele>142</ele>
        <time>2019-12-30T16:59:08Z</time>
      </trkpt>
      <trkpt lat="46.57983" lon="-1.79385">
        <ele>141</ele>
        <time>2019-12-30T16:59:22Z</time>
      </trkpt>
      <trkpt lat="46.57981" lon="-1.79391">
        <ele>141</ele>
        <time>2019-12-30T16:59:23Z</time>
      </trkpt>
      <trkpt lat="46.57965" lon="-1.7943">
        <ele>140</ele>
        <time>2019-12-30T16:59:30Z</time>
      </trkpt>
      <trkpt lat="46.57963" lon="-1.79436">
        <ele>140</ele>
        <time>2019-12-30T16:59:31Z</time>
      </trkpt>
      <trkpt lat="46.57959" lon="-1.79455">
        <ele>139</ele>
        <time>2019-12-30T16:59:34Z</time>
      </trkpt>
      <trkpt lat="46.57959" lon="-1.79468">
        <ele>139</ele>
        <time>2019-12-30T16:59:36Z</time>
      </trkpt>
      <trkpt lat="46.5796" lon="-1.79486">
        <ele>139</ele>
        <time>2019-12-30T16:59:39Z</time>
      </trkpt>
      <trkpt lat="46.57972" lon="-1.79533">
        <ele>139</ele>
        <time>2019-12-30T16:59:47Z</time>
      </trkpt>
      <trkpt lat="46.57978" lon="-1.79549">
        <ele>139</ele>
        <time>2019-12-30T16:59:50Z</time>
      </trkpt>
      <trkpt lat="46.57987" lon="-1.79564">
        <ele>139</ele>
        <time>2019-12-30T16:59:53Z</time>
      </trkpt>
      <trkpt lat="46.58003" lon="-1.79591">
        <ele>139</ele>
        <time>2019-12-30T16:59:59Z</time>
      </trkpt>
      <trkpt lat="46.58025" lon="-1.79662">
        <ele>138</ele>
        <time>2019-12-30T17:00:18Z</time>
      </trkpt>
      <trkpt lat="46.58024" lon="-1.79688">
        <ele>138</ele>
        <time>2019-12-30T17:00:25Z</time>
      </trkpt>
      <trkpt lat="46.58045" lon="-1.79751">
        <ele>139</ele>
        <time>2019-12-30T17:00:38Z</time>
      </trkpt>
      <trkpt lat="46.58054" lon="-1.79775">
        <ele>140</ele>
        <time>2019-12-30T17:00:43Z</time>
      </trkpt>
      <trkpt lat="46.58073" lon="-1.79852">
        <ele>139</ele>
        <time>2019-12-30T17:00:57Z</time>
      </trkpt>
      <trkpt lat="46.58082" lon="-1.79887">
        <ele>138</ele>
        <time>2019-12-30T17:01:02Z</time>
      </trkpt>
      <trkpt lat="46.58089" lon="-1.79898">
        <ele>138</ele>
        <time>2019-12-30T17:01:04Z</time>
      </trkpt>
      <trkpt lat="46.58092" lon="-1.79903">
        <ele>137</ele>
        <time>2019-12-30T17:01:05Z</time>
      </trkpt>
      <trkpt lat="46.5812" lon="-1.79927">
        <ele>137</ele>
        <time>2019-12-30T17:01:12Z</time>
      </trkpt>
      <trkpt lat="46.58142" lon="-1.79996">
        <ele>139</ele>
        <time>2019-12-30T17:01:25Z</time>
      </trkpt>
      <trkpt lat="46.58157" lon="-1.80046">
        <ele>140</ele>
        <time>2019-12-30T17:01:35Z</time>
      </trkpt>
      <trkpt lat="46.58124" lon="-1.80107">
        <ele>141</ele>
        <time>2019-12-30T17:01:50Z</time>
      </trkpt>
      <trkpt lat="46.58121" lon="-1.8011">
        <ele>141</ele>
        <time>2019-12-30T17:01:51Z</time>
      </trkpt>
      <trkpt lat="46.58109" lon="-1.80126">
        <ele>141</ele>
        <time>2019-12-30T17:01:55Z</time>
      </trkpt>
      <trkpt lat="46.58106" lon="-1.80138">
        <ele>141</ele>
        <time>2019-12-30T17:01:57Z</time>
      </trkpt>
      <trkpt lat="46.58106" lon="-1.8015">
        <ele>141</ele>
        <time>2019-12-30T17:01:59Z</time>
      </trkpt>
      <trkpt lat="46.58118" lon="-1.80227">
        <ele>141</ele>
        <time>2019-12-30T17:02:12Z</time>
      </trkpt>
      <trkpt lat="46.58131" lon="-1.80301">
        <ele>141</ele>
        <time>2019-12-30T17:02:24Z</time>
      </trkpt>
      <trkpt lat="46.58144" lon="-1.80375">
        <ele>140</ele>
        <time>2019-12-30T17:02:36Z</time>
      </trkpt>
      <trkpt lat="46.58151" lon="-1.80457">
        <ele>139</ele>
        <time>2019-12-30T17:02:48Z</time>
      </trkpt>
      <trkpt lat="46.58151" lon="-1.80463">
        <ele>139</ele>
        <time>2019-12-30T17:02:49Z</time>
      </trkpt>
      <trkpt lat="46.58152" lon="-1.8049">
        <ele>138</ele>
        <time>2019-12-30T17:02:53Z</time>
      </trkpt>
      <trkpt lat="46.58161" lon="-1.80569">
        <ele>138</ele>
        <time>2019-12-30T17:03:08Z</time>
      </trkpt>
      <trkpt lat="46.58168" lon="-1.80595">
        <ele>138</ele>
        <time>2019-12-30T17:03:14Z</time>
      </trkpt>
      <trkpt lat="46.5817" lon="-1.80622">
        <ele>138</ele>
        <time>2019-12-30T17:03:20Z</time>
      </trkpt>
      <trkpt lat="46.58128" lon="-1.80678">
        <ele>138</ele>
        <time>2019-12-30T17:03:38Z</time>
      </trkpt>
      <trkpt lat="46.58115" lon="-1.80693">
        <ele>138</ele>
        <time>2019-12-30T17:03:42Z</time>
      </trkpt>
      <trkpt lat="46.58081" lon="-1.80726">
        <ele>137</ele>
        <time>2019-12-30T17:03:52Z</time>
      </trkpt>
      <trkpt lat="46.58032" lon="-1.80765">
        <ele>137</ele>
        <time>2019-12-30T17:04:05Z</time>
      </trkpt>
      <trkpt lat="46.57993" lon="-1.80792">
        <ele>138</ele>
        <time>2019-12-30T17:04:15Z</time>
      </trkpt>
      <trkpt lat="46.57943" lon="-1.80831">
        <ele>137</ele>
        <time>2019-12-30T17:04:31Z</time>
      </trkpt>
      <trkpt lat="46.57893" lon="-1.80869">
        <ele>137</ele>
        <time>2019-12-30T17:04:48Z</time>
      </trkpt>
      <trkpt lat="46.57842" lon="-1.80906">
        <ele>137</ele>
        <time>2019-12-30T17:05:05Z</time>
      </trkpt>
      <trkpt lat="46.57805" lon="-1.80938">
        <ele>136</ele>
        <time>2019-12-30T17:05:15Z</time>
      </trkpt>
      <trkpt lat="46.57793" lon="-1.80948">
        <ele>136</ele>
        <time>2019-12-30T17:05:18Z</time>
      </trkpt>
      <trkpt lat="46.57755" lon="-1.80973">
        <ele>137</ele>
        <time>2019-12-30T17:06:17Z</time>
      </trkpt>
      <trkpt lat="46.57753" lon="-1.80976">
        <ele>137</ele>
        <time>2019-12-30T17:06:19Z</time>
      </trkpt>
      <trkpt lat="46.57705" lon="-1.80969">
        <ele>137</ele>
        <time>2019-12-30T17:06:47Z</time>
      </trkpt>
      <trkpt lat="46.57701" lon="-1.80972">
        <ele>137</ele>
        <time>2019-12-30T17:07:04Z</time>
      </trkpt>
      <trkpt lat="46.577" lon="-1.80974">
        <ele>137</ele>
        <time>2019-12-30T17:07:06Z</time>
      </trkpt>
      <trkpt lat="46.57698" lon="-1.80978">
        <ele>137</ele>
        <time>2019-12-30T17:07:08Z</time>
      </trkpt>
      <trkpt lat="46.57659" lon="-1.81029">
        <ele>136</ele>
        <time>2019-12-30T17:07:31Z</time>
      </trkpt>
      <trkpt lat="46.5761" lon="-1.81061">
        <ele>137</ele>
        <time>2019-12-30T17:07:50Z</time>
      </trkpt>
      <trkpt lat="46.57563" lon="-1.8105">
        <ele>136</ele>
        <time>2019-12-30T17:08:06Z</time>
      </trkpt>
      <trkpt lat="46.57542" lon="-1.81122">
        <ele>137</ele>
        <time>2019-12-30T17:08:23Z</time>
      </trkpt>
      <trkpt lat="46.57498" lon="-1.81175">
        <ele>137</ele>
        <time>2019-12-30T17:08:40Z</time>
      </trkpt>
      <trkpt lat="46.57454" lon="-1.81225">
        <ele>137</ele>
        <time>2019-12-30T17:08:57Z</time>
      </trkpt>
      <trkpt lat="46.5741" lon="-1.81275">
        <ele>136</ele>
        <time>2019-12-30T17:09:14Z</time>
      </trkpt>
      <trkpt lat="46.57364" lon="-1.81316">
        <ele>137</ele>
        <time>2019-12-30T17:09:32Z</time>
      </trkpt>
      <trkpt lat="46.5731" lon="-1.81338">
        <ele>137</ele>
        <time>2019-12-30T17:09:53Z</time>
      </trkpt>
      <trkpt lat="46.57258" lon="-1.81339">
        <ele>137</ele>
        <time>2019-12-30T17:10:14Z</time>
      </trkpt>
      <trkpt lat="46.57216" lon="-1.81341">
        <ele>137</ele>
        <time>2019-12-30T17:10:39Z</time>
      </trkpt>
      <trkpt lat="46.57213" lon="-1.81338">
        <ele>137</ele>
        <time>2019-12-30T17:10:42Z</time>
      </trkpt>
      <trkpt lat="46.57212" lon="-1.81333">
        <ele>137</ele>
        <time>2019-12-30T17:10:44Z</time>
      </trkpt>
      <trkpt lat="46.57244" lon="-1.81269">
        <ele>137</ele>
        <time>2019-12-30T17:11:03Z</time>
      </trkpt>
      <trkpt lat="46.57247" lon="-1.81238">
        <ele>137</ele>
        <time>2019-12-30T17:11:11Z</time>
      </trkpt>
      <trkpt lat="46.57201" lon="-1.81192">
        <ele>137</ele>
        <time>2019-12-30T17:11:27Z</time>
      </trkpt>
      <trkpt lat="46.57157" lon="-1.81141">
        <ele>137</ele>
        <time>2019-12-30T17:11:44Z</time>
      </trkpt>
      <trkpt lat="46.57124" lon="-1.81076">
        <ele>137</ele>
        <time>2019-12-30T17:12:04Z</time>
      </trkpt>
      <trkpt lat="46.57116" lon="-1.81049">
        <ele>137</ele>
        <time>2019-12-30T17:12:12Z</time>
      </trkpt>
      <trkpt lat="46.57119" lon="-1.81044">
        <ele>137</ele>
        <time>2019-12-30T17:12:14Z</time>
      </trkpt>
      <trkpt lat="46.57143" lon="-1.81031">
        <ele>137</ele>
        <time>2019-12-30T17:12:24Z</time>
      </trkpt>
      <trkpt lat="46.57122" lon="-1.80957">
        <ele>137</ele>
        <time>2019-12-30T17:12:43Z</time>
      </trkpt>
      <trkpt lat="46.57095" lon="-1.80891">
        <ele>137</ele>
        <time>2019-12-30T17:13:02Z</time>
      </trkpt>
      <trkpt lat="46.57083" lon="-1.80866">
        <ele>137</ele>
        <time>2019-12-30T17:13:13Z</time>
      </trkpt>
      <trkpt lat="46.5703" lon="-1.80896">
        <ele>137</ele>
        <time>2019-12-30T17:13:34Z</time>
      </trkpt>
      <trkpt lat="46.5698" lon="-1.80926">
        <ele>136</ele>
        <time>2019-12-30T17:13:52Z</time>
      </trkpt>
      <trkpt lat="46.56928" lon="-1.80952">
        <ele>137</ele>
        <time>2019-12-30T17:14:18Z</time>
      </trkpt>
      <trkpt lat="46.56925" lon="-1.8095">
        <ele>137</ele>
        <time>2019-12-30T17:16:43Z</time>
      </trkpt>
      <trkpt lat="46.56921" lon="-1.80946">
        <ele>137</ele>
        <time>2019-12-30T17:16:45Z</time>
      </trkpt>
      <trkpt lat="46.56878" lon="-1.80896">
        <ele>136</ele>
        <time>2019-12-30T17:17:01Z</time>
      </trkpt>
      <trkpt lat="46.56836" lon="-1.80841">
        <ele>136</ele>
        <time>2019-12-30T17:17:16Z</time>
      </trkpt>
      <trkpt lat="46.5681" lon="-1.80804">
        <ele>137</ele>
        <time>2019-12-30T17:17:27Z</time>
      </trkpt>
      <trkpt lat="46.5677" lon="-1.80857">
        <ele>137</ele>
        <time>2019-12-30T17:17:44Z</time>
      </trkpt>
      <trkpt lat="46.5673" lon="-1.80913">
        <ele>136</ele>
        <time>2019-12-30T17:18:01Z</time>
      </trkpt>
      <trkpt lat="46.56701" lon="-1.80949">
        <ele>137</ele>
        <time>2019-12-30T17:18:13Z</time>
      </trkpt>
      <trkpt lat="46.56648" lon="-1.80951">
        <ele>137</ele>
        <time>2019-12-30T17:18:31Z</time>
      </trkpt>
      <trkpt lat="46.56614" lon="-1.81013">
        <ele>137</ele>
        <time>2019-12-30T17:18:51Z</time>
      </trkpt>
      <trkpt lat="46.5658" lon="-1.81073">
        <ele>137</ele>
        <time>2019-12-30T17:19:12Z</time>
      </trkpt>
      <trkpt lat="46.56553" lon="-1.81089">
        <ele>137</ele>
        <time>2019-12-30T17:19:22Z</time>
      </trkpt>
      <trkpt lat="46.56519" lon="-1.81149">
        <ele>136</ele>
        <time>2019-12-30T17:19:38Z</time>
      </trkpt>
      <trkpt lat="46.56471" lon="-1.81184">
        <ele>136</ele>
        <time>2019-12-30T17:19:53Z</time>
      </trkpt>
      <trkpt lat="46.56419" lon="-1.81185">
        <ele>137</ele>
        <time>2019-12-30T17:20:16Z</time>
      </trkpt>
      <trkpt lat="46.56402" lon="-1.8115">
        <ele>138</ele>
        <time>2019-12-30T17:20:24Z</time>
      </trkpt>
      <trkpt lat="46.5638" lon="-1.81094">
        <ele>139</ele>
        <time>2019-12-30T17:20:35Z</time>
      </trkpt>
      <trkpt lat="46.56351" lon="-1.81022">
        <ele>138</ele>
        <time>2019-12-30T17:20:51Z</time>
      </trkpt>
      <trkpt lat="46.56347" lon="-1.8101">
        <ele>138</ele>
        <time>2019-12-30T17:20:53Z</time>
      </trkpt>
      <trkpt lat="46.56294" lon="-1.80986">
        <ele>138</ele>
        <time>2019-12-30T17:21:07Z</time>
      </trkpt>
      <trkpt lat="46.56238" lon="-1.80984">
        <ele>138</ele>
        <time>2019-12-30T17:21:21Z</time>
      </trkpt>
      <trkpt lat="46.5623" lon="-1.80985">
        <ele>138</ele>
        <time>2019-12-30T17:21:23Z</time>
      </trkpt>
      <trkpt lat="46.56193" lon="-1.80995">
        <ele>137</ele>
        <time>2019-12-30T17:21:32Z</time>
      </trkpt>
      <trkpt lat="46.56177" lon="-1.8101">
        <ele>137</ele>
        <time>2019-12-30T17:21:36Z</time>
      </trkpt>
      <trkpt lat="46.56174" lon="-1.81015">
        <ele>137</ele>
        <time>2019-12-30T17:21:37Z</time>
      </trkpt>
      <trkpt lat="46.56168" lon="-1.81026">
        <ele>137</ele>
        <time>2019-12-30T17:21:39Z</time>
      </trkpt>
      <trkpt lat="46.56128" lon="-1.81069">
        <ele>139</ele>
        <time>2019-12-30T17:21:55Z</time>
      </trkpt>
      <trkpt lat="46.56085" lon="-1.81029">
        <ele>139</ele>
        <time>2019-12-30T17:22:32Z</time>
      </trkpt>
      <trkpt lat="46.56081" lon="-1.81026">
        <ele>139</ele>
        <time>2019-12-30T17:22:35Z</time>
      </trkpt>
      <trkpt lat="46.5604" lon="-1.80982">
        <ele>140</ele>
        <time>2019-12-30T17:22:52Z</time>
      </trkpt>
      <trkpt lat="46.5599" lon="-1.80948">
        <ele>141</ele>
        <time>2019-12-30T17:23:07Z</time>
      </trkpt>
      <trkpt lat="46.55939" lon="-1.80921">
        <ele>140</ele>
        <time>2019-12-30T17:23:23Z</time>
      </trkpt>
      <trkpt lat="46.55895" lon="-1.80895">
        <ele>140</ele>
        <time>2019-12-30T17:23:35Z</time>
      </trkpt>
      <trkpt lat="46.55866" lon="-1.80877">
        <ele>139</ele>
        <time>2019-12-30T17:23:42Z</time>
      </trkpt>
      <trkpt lat="46.55861" lon="-1.80875">
        <ele>139</ele>
        <time>2019-12-30T17:23:43Z</time>
      </trkpt>
      <trkpt lat="46.55846" lon="-1.8087">
        <ele>138</ele>
        <time>2019-12-30T17:23:46Z</time>
      </trkpt>
      <trkpt lat="46.55832" lon="-1.80869">
        <ele>138</ele>
        <time>2019-12-30T17:23:49Z</time>
      </trkpt>
      <trkpt lat="46.55776" lon="-1.8087">
        <ele>138</ele>
        <time>2019-12-30T17:24:04Z</time>
      </trkpt>
      <trkpt lat="46.55766" lon="-1.8087">
        <ele>139</ele>
        <time>2019-12-30T17:24:35Z</time>
      </trkpt>
      <trkpt lat="46.55759" lon="-1.8086">
        <ele>139</ele>
        <time>2019-12-30T17:24:39Z</time>
      </trkpt>
      <trkpt lat="46.55707" lon="-1.80839">
        <ele>139</ele>
        <time>2019-12-30T17:24:54Z</time>
      </trkpt>
      <trkpt lat="46.55682" lon="-1.80831">
        <ele>139</ele>
        <time>2019-12-30T17:25:01Z</time>
      </trkpt>
      <trkpt lat="46.5563" lon="-1.80815">
        <ele>140</ele>
        <time>2019-12-30T17:25:15Z</time>
      </trkpt>
      <trkpt lat="46.55577" lon="-1.80795">
        <ele>141</ele>
        <time>2019-12-30T17:25:30Z</time>
      </trkpt>
      <trkpt lat="46.55574" lon="-1.80793">
        <ele>141</ele>
        <time>2019-12-30T17:25:31Z</time>
      </trkpt>
      <trkpt lat="46.55525" lon="-1.8075">
        <ele>141</ele>
        <time>2019-12-30T17:25:47Z</time>
      </trkpt>
      <trkpt lat="46.55488" lon="-1.8069">
        <ele>141</ele>
        <time>2019-12-30T17:26:01Z</time>
      </trkpt>
      <trkpt lat="46.55462" lon="-1.80643">
        <ele>142</ele>
        <time>2019-12-30T17:26:11Z</time>
      </trkpt>
      <trkpt lat="46.55426" lon="-1.80581">
        <ele>141</ele>
        <time>2019-12-30T17:26:25Z</time>
      </trkpt>
      <trkpt lat="46.55419" lon="-1.80573">
        <ele>141</ele>
        <time>2019-12-30T17:26:27Z</time>
      </trkpt>
      <trkpt lat="46.55372" lon="-1.8053">
        <ele>142</ele>
        <time>2019-12-30T17:26:42Z</time>
      </trkpt>
      <trkpt lat="46.55358" lon="-1.80517">
        <ele>142</ele>
        <time>2019-12-30T17:26:47Z</time>
      </trkpt>
      <trkpt lat="46.55311" lon="-1.80475">
        <ele>142</ele>
        <time>2019-12-30T17:27:02Z</time>
      </trkpt>
      <trkpt lat="46.55261" lon="-1.80435">
        <ele>142</ele>
        <time>2019-12-30T17:27:18Z</time>
      </trkpt>
      <trkpt lat="46.55211" lon="-1.80396">
        <ele>142</ele>
        <time>2019-12-30T17:27:34Z</time>
      </trkpt>
      <trkpt lat="46.55163" lon="-1.80359">
        <ele>143</ele>
        <time>2019-12-30T17:27:49Z</time>
      </trkpt>
      <trkpt lat="46.55115" lon="-1.8032">
        <ele>142</ele>
        <time>2019-12-30T17:28:04Z</time>
      </trkpt>
      <trkpt lat="46.55065" lon="-1.80279">
        <ele>142</ele>
        <time>2019-12-30T17:28:19Z</time>
      </trkpt>
      <trkpt lat="46.55021" lon="-1.8023">
        <ele>142</ele>
        <time>2019-12-30T17:28:36Z</time>
      </trkpt>
      <trkpt lat="46.54981" lon="-1.80174">
        <ele>142</ele>
        <time>2019-12-30T17:28:56Z</time>
      </trkpt>
      <trkpt lat="46.54955" lon="-1.80138">
        <ele>141</ele>
        <time>2019-12-30T17:29:06Z</time>
      </trkpt>
      <trkpt lat="46.54918" lon="-1.8008">
        <ele>141</ele>
        <time>2019-12-30T17:29:21Z</time>
      </trkpt>
      <trkpt lat="46.54894" lon="-1.80046">
        <ele>140</ele>
        <time>2019-12-30T17:29:29Z</time>
      </trkpt>
      <trkpt lat="46.54866" lon="-1.80002">
        <ele>139</ele>
        <time>2019-12-30T17:29:40Z</time>
      </trkpt>
      <trkpt lat="46.54851" lon="-1.79977">
        <ele>138</ele>
        <time>2019-12-30T17:30:02Z</time>
      </trkpt>
      <trkpt lat="46.54851" lon="-1.79971">
        <ele>138</ele>
        <time>2019-12-30T17:30:04Z</time>
      </trkpt>
      <trkpt lat="46.54851" lon="-1.79963">
        <ele>138</ele>
        <time>2019-12-30T17:30:06Z</time>
      </trkpt>
      <trkpt lat="46.54841" lon="-1.79947">
        <ele>138</ele>
        <time>2019-12-30T17:30:11Z</time>
      </trkpt>
      <trkpt lat="46.54838" lon="-1.79934">
        <ele>138</ele>
        <time>2019-12-30T17:30:14Z</time>
      </trkpt>
      <trkpt lat="46.54802" lon="-1.79875">
        <ele>137</ele>
        <time>2019-12-30T17:30:29Z</time>
      </trkpt>
      <trkpt lat="46.54797" lon="-1.79867">
        <ele>137</ele>
        <time>2019-12-30T17:30:31Z</time>
      </trkpt>
      <trkpt lat="46.54777" lon="-1.79827">
        <ele>138</ele>
        <time>2019-12-30T17:30:40Z</time>
      </trkpt>
      <trkpt lat="46.54748" lon="-1.79808">
        <ele>137</ele>
        <time>2019-12-30T17:30:49Z</time>
      </trkpt>
      <trkpt lat="46.54694" lon="-1.79811">
        <ele>137</ele>
        <time>2019-12-30T17:31:03Z</time>
      </trkpt>
      <trkpt lat="46.54636" lon="-1.79814">
        <ele>137</ele>
        <time>2019-12-30T17:31:17Z</time>
      </trkpt>
      <trkpt lat="46.54582" lon="-1.79807">
        <ele>137</ele>
        <time>2019-12-30T17:31:30Z</time>
      </trkpt>
      <trkpt lat="46.5453" lon="-1.79788">
        <ele>137</ele>
        <time>2019-12-30T17:31:44Z</time>
      </trkpt>
      <trkpt lat="46.54475" lon="-1.79767">
        <ele>137</ele>
        <time>2019-12-30T17:31:59Z</time>
      </trkpt>
      <trkpt lat="46.54428" lon="-1.79727">
        <ele>138</ele>
        <time>2019-12-30T17:32:14Z</time>
      </trkpt>
      <trkpt lat="46.54422" lon="-1.79721">
        <ele>138</ele>
        <time>2019-12-30T17:32:16Z</time>
      </trkpt>
      <trkpt lat="46.54375" lon="-1.79675">
        <ele>138</ele>
        <time>2019-12-30T17:32:32Z</time>
      </trkpt>
      <trkpt lat="46.54329" lon="-1.79625">
        <ele>139</ele>
        <time>2019-12-30T17:32:49Z</time>
      </trkpt>
      <trkpt lat="46.54309" lon="-1.79606">
        <ele>139</ele>
        <time>2019-12-30T17:32:57Z</time>
      </trkpt>
      <trkpt lat="46.54289" lon="-1.79643">
        <ele>139</ele>
        <time>2019-12-30T17:33:08Z</time>
      </trkpt>
      <trkpt lat="46.54267" lon="-1.79704">
        <ele>140</ele>
        <time>2019-12-30T17:33:26Z</time>
      </trkpt>
      <trkpt lat="46.54229" lon="-1.79761">
        <ele>141</ele>
        <time>2019-12-30T17:33:49Z</time>
      </trkpt>
      <trkpt lat="46.54224" lon="-1.79752">
        <ele>141</ele>
        <time>2019-12-30T17:33:55Z</time>
      </trkpt>
      <trkpt lat="46.54216" lon="-1.79729">
        <ele>141</ele>
        <time>2019-12-30T17:34:02Z</time>
      </trkpt>
      <trkpt lat="46.54218" lon="-1.79714">
        <ele>141</ele>
        <time>2019-12-30T17:34:06Z</time>
      </trkpt>
      <trkpt lat="46.54255" lon="-1.79653">
        <ele>141</ele>
        <time>2019-12-30T17:34:20Z</time>
      </trkpt>
      <trkpt lat="46.54271" lon="-1.79623">
        <ele>140</ele>
        <time>2019-12-30T17:34:26Z</time>
      </trkpt>
      <trkpt lat="46.54295" lon="-1.79573">
        <ele>139</ele>
        <time>2019-12-30T17:34:35Z</time>
      </trkpt>
      <trkpt lat="46.54297" lon="-1.79561">
        <ele>139</ele>
        <time>2019-12-30T17:34:37Z</time>
      </trkpt>
      <trkpt lat="46.54298" lon="-1.79548">
        <ele>139</ele>
        <time>2019-12-30T17:34:39Z</time>
      </trkpt>
      <trkpt lat="46.54322" lon="-1.795">
        <ele>138</ele>
        <time>2019-12-30T17:34:48Z</time>
      </trkpt>
      <trkpt lat="46.54354" lon="-1.79436">
        <ele>138</ele>
        <time>2019-12-30T17:35:01Z</time>
      </trkpt>
      <trkpt lat="46.54363" lon="-1.79362">
        <ele>138</ele>
        <time>2019-12-30T17:35:17Z</time>
      </trkpt>
      <trkpt lat="46.5432" lon="-1.79309">
        <ele>139</ele>
        <time>2019-12-30T17:35:31Z</time>
      </trkpt>
      <trkpt lat="46.54281" lon="-1.79261">
        <ele>138</ele>
        <time>2019-12-30T17:35:43Z</time>
      </trkpt>
      <trkpt lat="46.54267" lon="-1.79245">
        <ele>138</ele>
        <time>2019-12-30T17:35:47Z</time>
      </trkpt>
      <trkpt lat="46.5426" lon="-1.7923">
        <ele>138</ele>
        <time>2019-12-30T17:35:50Z</time>
      </trkpt>
      <trkpt lat="46.54256" lon="-1.7922">
        <ele>138</ele>
        <time>2019-12-30T17:35:52Z</time>
      </trkpt>
      <trkpt lat="46.54254" lon="-1.7921">
        <ele>138</ele>
        <time>2019-12-30T17:35:54Z</time>
      </trkpt>
      <trkpt lat="46.54239" lon="-1.79133">
        <ele>138</ele>
        <time>2019-12-30T17:36:13Z</time>
      </trkpt>
      <trkpt lat="46.54243" lon="-1.7913">
        <ele>138</ele>
        <time>2019-12-30T17:36:25Z</time>
      </trkpt>
      <trkpt lat="46.54244" lon="-1.79126">
        <ele>138</ele>
        <time>2019-12-30T17:38:16Z</time>
      </trkpt>
      <trkpt lat="46.54236" lon="-1.79125">
        <ele>138</ele>
        <time>2019-12-30T17:41:02Z</time>
      </trkpt>
      <trkpt lat="46.54235" lon="-1.79123">
        <ele>138</ele>
        <time>2019-12-30T17:41:03Z</time>
      </trkpt>
      <trkpt lat="46.54226" lon="-1.79069">
        <ele>138</ele>
        <time>2019-12-30T17:41:17Z</time>
      </trkpt>
      <trkpt lat="46.54218" lon="-1.7899">
        <ele>138</ele>
        <time>2019-12-30T17:41:31Z</time>
      </trkpt>
      <trkpt lat="46.54212" lon="-1.78911">
        <ele>138</ele>
        <time>2019-12-30T17:41:44Z</time>
      </trkpt>
      <trkpt lat="46.54209" lon="-1.78831">
        <ele>138</ele>
        <time>2019-12-30T17:41:56Z</time>
      </trkpt>
      <trkpt lat="46.54211" lon="-1.78752">
        <ele>138</ele>
        <time>2019-12-30T17:42:08Z</time>
      </trkpt>
      <trkpt lat="46.54218" lon="-1.78672">
        <ele>137</ele>
        <time>2019-12-30T17:42:20Z</time>
      </trkpt>
      <trkpt lat="46.54226" lon="-1.78597">
        <ele>138</ele>
        <time>2019-12-30T17:42:32Z</time>
      </trkpt>
      <trkpt lat="46.54236" lon="-1.78514">
        <ele>138</ele>
        <time>2019-12-30T17:42:45Z</time>
      </trkpt>
      <trkpt lat="46.54244" lon="-1.78465">
        <ele>138</ele>
        <time>2019-12-30T17:42:53Z</time>
      </trkpt>
      <trkpt lat="46.54258" lon="-1.78413">
        <ele>138</ele>
        <time>2019-12-30T17:43:02Z</time>
      </trkpt>
      <trkpt lat="46.54268" lon="-1.78335">
        <ele>138</ele>
        <time>2019-12-30T17:43:16Z</time>
      </trkpt>
      <trkpt lat="46.54281" lon="-1.78257">
        <ele>137</ele>
        <time>2019-12-30T17:43:30Z</time>
      </trkpt>
      <trkpt lat="46.54282" lon="-1.78251">
        <ele>137</ele>
        <time>2019-12-30T17:43:31Z</time>
      </trkpt>
      <trkpt lat="46.54287" lon="-1.78226">
        <ele>137</ele>
        <time>2019-12-30T17:43:35Z</time>
      </trkpt>
      <trkpt lat="46.54291" lon="-1.78207">
        <ele>137</ele>
        <time>2019-12-30T17:43:38Z</time>
      </trkpt>
      <trkpt lat="46.54295" lon="-1.78189">
        <ele>138</ele>
        <time>2019-12-30T17:43:41Z</time>
      </trkpt>
      <trkpt lat="46.54307" lon="-1.78129">
        <ele>137</ele>
        <time>2019-12-30T17:43:51Z</time>
      </trkpt>
      <trkpt lat="46.54309" lon="-1.7811">
        <ele>137</ele>
        <time>2019-12-30T17:43:54Z</time>
      </trkpt>
      <trkpt lat="46.54309" lon="-1.78086">
        <ele>137</ele>
        <time>2019-12-30T17:43:58Z</time>
      </trkpt>
      <trkpt lat="46.54307" lon="-1.78075">
        <ele>137</ele>
        <time>2019-12-30T17:44:00Z</time>
      </trkpt>
      <trkpt lat="46.54288" lon="-1.77995">
        <ele>137</ele>
        <time>2019-12-30T17:44:14Z</time>
      </trkpt>
      <trkpt lat="46.54277" lon="-1.77959">
        <ele>138</ele>
        <time>2019-12-30T17:44:21Z</time>
      </trkpt>
      <trkpt lat="46.54244" lon="-1.77894">
        <ele>138</ele>
        <time>2019-12-30T17:44:35Z</time>
      </trkpt>
      <trkpt lat="46.54203" lon="-1.77853">
        <ele>137</ele>
        <time>2019-12-30T17:44:48Z</time>
      </trkpt>
      <trkpt lat="46.54177" lon="-1.7778">
        <ele>137</ele>
        <time>2019-12-30T17:45:04Z</time>
      </trkpt>
      <trkpt lat="46.54162" lon="-1.77702">
        <ele>138</ele>
        <time>2019-12-30T17:45:20Z</time>
      </trkpt>
      <trkpt lat="46.54157" lon="-1.77685">
        <ele>138</ele>
        <time>2019-12-30T17:45:49Z</time>
      </trkpt>
      <trkpt lat="46.54157" lon="-1.77685">
        <ele>138</ele>
        <time>2019-12-30T17:45:50Z</time>
      </trkpt>
      <trkpt lat="46.54156" lon="-1.77681">
        <ele>138</ele>
        <time>2019-12-30T17:45:52Z</time>
      </trkpt>
      <trkpt lat="46.54139" lon="-1.77604">
        <ele>138</ele>
        <time>2019-12-30T17:46:09Z</time>
      </trkpt>
      <trkpt lat="46.54136" lon="-1.77557">
        <ele>139</ele>
        <time>2019-12-30T17:46:19Z</time>
      </trkpt>
      <trkpt lat="46.54146" lon="-1.77548">
        <ele>139</ele>
        <time>2019-12-30T17:46:24Z</time>
      </trkpt>
      <trkpt lat="46.54147" lon="-1.77543">
        <ele>139</ele>
        <time>2019-12-30T17:46:26Z</time>
      </trkpt>
      <trkpt lat="46.54146" lon="-1.77522">
        <ele>139</ele>
        <time>2019-12-30T17:46:39Z</time>
      </trkpt>
      <trkpt lat="46.54147" lon="-1.77515">
        <ele>140</ele>
        <time>2019-12-30T17:46:43Z</time>
      </trkpt>
      <trkpt lat="46.5415" lon="-1.77512">
        <ele>140</ele>
        <time>2019-12-30T17:46:47Z</time>
      </trkpt>
      <trkpt lat="46.54161" lon="-1.77507">
        <ele>141</ele>
        <time>2019-12-30T17:46:53Z</time>
      </trkpt>
      <trkpt lat="46.5417" lon="-1.77499">
        <ele>139</ele>
        <time>2019-12-30T17:46:56Z</time>
      </trkpt>
      <trkpt lat="46.54189" lon="-1.77486">
        <ele>139</ele>
        <time>2019-12-30T17:47:01Z</time>
      </trkpt>
      <trkpt lat="46.54197" lon="-1.77479">
        <ele>139</ele>
        <time>2019-12-30T17:47:03Z</time>
      </trkpt>
      <trkpt lat="46.54212" lon="-1.77467">
        <ele>139</ele>
        <time>2019-12-30T17:47:07Z</time>
      </trkpt>
      <trkpt lat="46.54219" lon="-1.77461">
        <ele>140</ele>
        <time>2019-12-30T17:47:11Z</time>
      </trkpt>
      <trkpt lat="46.54215" lon="-1.77456">
        <ele>141</ele>
        <time>2019-12-30T17:47:15Z</time>
      </trkpt>
      <trkpt lat="46.54205" lon="-1.77462">
        <ele>140</ele>
        <time>2019-12-30T17:47:19Z</time>
      </trkpt>
      <trkpt lat="46.54192" lon="-1.7747">
        <ele>140</ele>
        <time>2019-12-30T17:47:26Z</time>
      </trkpt>
      <trkpt lat="46.54189" lon="-1.77472">
        <ele>140</ele>
        <time>2019-12-30T17:47:28Z</time>
      </trkpt>
      <trkpt lat="46.54146" lon="-1.77515">
        <ele>141</ele>
        <time>2019-12-30T17:47:54Z</time>
      </trkpt>
      <trkpt lat="46.54145" lon="-1.77519">
        <ele>141</ele>
        <time>2019-12-30T17:47:57Z</time>
      </trkpt>
      <trkpt lat="46.54144" lon="-1.77521">
        <ele>140</ele>
        <time>2019-12-30T17:48:00Z</time>
      </trkpt>
      <trkpt lat="46.54146" lon="-1.77527">
        <ele>140</ele>
        <time>2019-12-30T17:48:10Z</time>
      </trkpt>
      <trkpt lat="46.5416" lon="-1.77534">
        <ele>140</ele>
        <time>2019-12-30T17:48:19Z</time>
      </trkpt>
      <trkpt lat="46.54164" lon="-1.77531">
        <ele>139</ele>
        <time>2019-12-30T17:48:22Z</time>
      </trkpt>
      <trkpt lat="46.54171" lon="-1.77526">
        <ele>139</ele>
        <time>2019-12-30T17:48:28Z</time>
      </trkpt>
      <trkpt lat="46.54176" lon="-1.77519">
        <ele>140</ele>
        <time>2019-12-30T17:49:39Z</time>
      </trkpt>
      <trkpt lat="46.5418" lon="-1.77515">
        <ele>139</ele>
        <time>2019-12-30T17:49:41Z</time>
      </trkpt>
      <trkpt lat="46.54225" lon="-1.77468">
        <ele>139</ele>
        <time>2019-12-30T17:49:58Z</time>
      </trkpt>
      <trkpt lat="46.54227" lon="-1.77464">
        <ele>139</ele>
        <time>2019-12-30T17:49:59Z</time>
      </trkpt>
      <trkpt lat="46.54232" lon="-1.77449">
        <ele>139</ele>
        <time>2019-12-30T17:50:03Z</time>
      </trkpt>
      <trkpt lat="46.54227" lon="-1.77369">
        <ele>139</ele>
        <time>2019-12-30T17:50:20Z</time>
      </trkpt>
      <trkpt lat="46.54223" lon="-1.7733">
        <ele>140</ele>
        <time>2019-12-30T17:50:29Z</time>
      </trkpt>
      <trkpt lat="46.54216" lon="-1.7729">
        <ele>140</ele>
        <time>2019-12-30T17:50:40Z</time>
      </trkpt>
      <trkpt lat="46.54206" lon="-1.77257">
        <ele>142</ele>
        <time>2019-12-30T17:50:51Z</time>
      </trkpt>
      <trkpt lat="46.54196" lon="-1.77225">
        <ele>142</ele>
        <time>2019-12-30T17:51:06Z</time>
      </trkpt>
      <trkpt lat="46.54197" lon="-1.77218">
        <ele>142</ele>
        <time>2019-12-30T17:51:09Z</time>
      </trkpt>
      <trkpt lat="46.54199" lon="-1.772">
        <ele>142</ele>
        <time>2019-12-30T17:51:16Z</time>
      </trkpt>
      <trkpt lat="46.54176" lon="-1.77152">
        <ele>143</ele>
        <time>2019-12-30T17:51:36Z</time>
      </trkpt>
      <trkpt lat="46.5417" lon="-1.77104">
        <ele>144</ele>
        <time>2019-12-30T17:51:48Z</time>
      </trkpt>
      <trkpt lat="46.54161" lon="-1.77061">
        <ele>145</ele>
        <time>2019-12-30T17:52:01Z</time>
      </trkpt>
      <trkpt lat="46.54161" lon="-1.77051">
        <ele>145</ele>
        <time>2019-12-30T17:52:29Z</time>
      </trkpt>
      <trkpt lat="46.54164" lon="-1.77046">
        <ele>146</ele>
        <time>2019-12-30T17:52:31Z</time>
      </trkpt>
      <trkpt lat="46.5419" lon="-1.77024">
        <ele>145</ele>
        <time>2019-12-30T17:52:40Z</time>
      </trkpt>
      <trkpt lat="46.54189" lon="-1.77002">
        <ele>144</ele>
        <time>2019-12-30T17:52:44Z</time>
      </trkpt>
      <trkpt lat="46.54186" lon="-1.76923">
        <ele>145</ele>
        <time>2019-12-30T17:52:59Z</time>
      </trkpt>
      <trkpt lat="46.54186" lon="-1.76913">
        <ele>145</ele>
        <time>2019-12-30T17:53:01Z</time>
      </trkpt>
      <trkpt lat="46.54188" lon="-1.76888">
        <ele>146</ele>
        <time>2019-12-30T17:53:06Z</time>
      </trkpt>
      <trkpt lat="46.54193" lon="-1.7686">
        <ele>147</ele>
        <time>2019-12-30T17:53:12Z</time>
      </trkpt>
      <trkpt lat="46.54204" lon="-1.76782">
        <ele>147</ele>
        <time>2019-12-30T17:53:30Z</time>
      </trkpt>
      <trkpt lat="46.54235" lon="-1.76723">
        <ele>147</ele>
        <time>2019-12-30T17:53:47Z</time>
      </trkpt>
      <trkpt lat="46.54277" lon="-1.76668">
        <ele>146</ele>
        <time>2019-12-30T17:54:02Z</time>
      </trkpt>
      <trkpt lat="46.54291" lon="-1.76652">
        <ele>146</ele>
        <time>2019-12-30T17:54:06Z</time>
      </trkpt>
      <trkpt lat="46.54336" lon="-1.76602">
        <ele>145</ele>
        <time>2019-12-30T17:54:18Z</time>
      </trkpt>
      <trkpt lat="46.54382" lon="-1.76559">
        <ele>146</ele>
        <time>2019-12-30T17:54:30Z</time>
      </trkpt>
      <trkpt lat="46.544" lon="-1.76543">
        <ele>145</ele>
        <time>2019-12-30T17:54:35Z</time>
      </trkpt>
      <trkpt lat="46.5441" lon="-1.7653">
        <ele>145</ele>
        <time>2019-12-30T17:54:38Z</time>
      </trkpt>
      <trkpt lat="46.54431" lon="-1.76458">
        <ele>145</ele>
        <time>2019-12-30T17:54:51Z</time>
      </trkpt>
      <trkpt lat="46.54432" lon="-1.76453">
        <ele>145</ele>
        <time>2019-12-30T17:54:52Z</time>
      </trkpt>
      <trkpt lat="46.54445" lon="-1.764">
        <ele>144</ele>
        <time>2019-12-30T17:55:02Z</time>
      </trkpt>
      <trkpt lat="46.5446" lon="-1.76358">
        <ele>143</ele>
        <time>2019-12-30T17:55:09Z</time>
      </trkpt>
      <trkpt lat="46.54462" lon="-1.76351">
        <ele>143</ele>
        <time>2019-12-30T17:55:10Z</time>
      </trkpt>
      <trkpt lat="46.54465" lon="-1.76336">
        <ele>142</ele>
        <time>2019-12-30T17:55:12Z</time>
      </trkpt>
      <trkpt lat="46.54461" lon="-1.76254">
        <ele>143</ele>
        <time>2019-12-30T17:55:25Z</time>
      </trkpt>
      <trkpt lat="46.54459" lon="-1.76224">
        <ele>144</ele>
        <time>2019-12-30T17:55:32Z</time>
      </trkpt>
      <trkpt lat="46.54455" lon="-1.76186">
        <ele>145</ele>
        <time>2019-12-30T17:55:42Z</time>
      </trkpt>
      <trkpt lat="46.54448" lon="-1.7612">
        <ele>146</ele>
        <time>2019-12-30T17:55:59Z</time>
      </trkpt>
      <trkpt lat="46.54433" lon="-1.76043">
        <ele>146</ele>
        <time>2019-12-30T17:56:16Z</time>
      </trkpt>
      <trkpt lat="46.54409" lon="-1.75971">
        <ele>147</ele>
        <time>2019-12-30T17:56:33Z</time>
      </trkpt>
      <trkpt lat="46.54385" lon="-1.75937">
        <ele>147</ele>
        <time>2019-12-30T17:56:44Z</time>
      </trkpt>
      <trkpt lat="46.54342" lon="-1.75898">
        <ele>148</ele>
        <time>2019-12-30T17:57:02Z</time>
      </trkpt>
      <trkpt lat="46.54339" lon="-1.75893">
        <ele>148</ele>
        <time>2019-12-30T17:57:04Z</time>
      </trkpt>
      <trkpt lat="46.54327" lon="-1.75875">
        <ele>148</ele>
        <time>2019-12-30T17:58:15Z</time>
      </trkpt>
      <trkpt lat="46.54326" lon="-1.75873">
        <ele>148</ele>
        <time>2019-12-30T17:58:17Z</time>
      </trkpt>
      <trkpt lat="46.54323" lon="-1.75867">
        <ele>148</ele>
        <time>2019-12-30T17:58:20Z</time>
      </trkpt>
      <trkpt lat="46.54281" lon="-1.75812">
        <ele>149</ele>
        <time>2019-12-30T17:58:38Z</time>
      </trkpt>
      <trkpt lat="46.54278" lon="-1.75808">
        <ele>149</ele>
        <time>2019-12-30T17:58:39Z</time>
      </trkpt>
      <trkpt lat="46.54242" lon="-1.75759">
        <ele>150</ele>
        <time>2019-12-30T17:58:54Z</time>
      </trkpt>
      <trkpt lat="46.54223" lon="-1.75722">
        <ele>150</ele>
        <time>2019-12-30T17:59:07Z</time>
      </trkpt>
      <trkpt lat="46.54238" lon="-1.7571">
        <ele>149</ele>
        <time>2019-12-30T17:59:13Z</time>
      </trkpt>
      <trkpt lat="46.54243" lon="-1.75708">
        <ele>149</ele>
        <time>2019-12-30T17:59:14Z</time>
      </trkpt>
      <trkpt lat="46.54257" lon="-1.75704">
        <ele>148</ele>
        <time>2019-12-30T17:59:16Z</time>
      </trkpt>
      <trkpt lat="46.54264" lon="-1.75702">
        <ele>147</ele>
        <time>2019-12-30T17:59:17Z</time>
      </trkpt>
      <trkpt lat="46.54272" lon="-1.75699">
        <ele>145</ele>
        <time>2019-12-30T17:59:18Z</time>
      </trkpt>
      <trkpt lat="46.5428" lon="-1.75697">
        <ele>144</ele>
        <time>2019-12-30T17:59:19Z</time>
      </trkpt>
      <trkpt lat="46.54287" lon="-1.75695">
        <ele>142</ele>
        <time>2019-12-30T17:59:20Z</time>
      </trkpt>
      <trkpt lat="46.54294" lon="-1.75693">
        <ele>141</ele>
        <time>2019-12-30T17:59:21Z</time>
      </trkpt>
      <trkpt lat="46.54304" lon="-1.75687">
        <ele>140</ele>
        <time>2019-12-30T17:59:23Z</time>
      </trkpt>
      <trkpt lat="46.54312" lon="-1.75678">
        <ele>139</ele>
        <time>2019-12-30T17:59:25Z</time>
      </trkpt>
      <trkpt lat="46.5432" lon="-1.75667">
        <ele>138</ele>
        <time>2019-12-30T17:59:27Z</time>
      </trkpt>
      <trkpt lat="46.5432" lon="-1.7565">
        <ele>138</ele>
        <time>2019-12-30T17:59:29Z</time>
      </trkpt>
      <trkpt lat="46.54316" lon="-1.75637">
        <ele>139</ele>
        <time>2019-12-30T17:59:31Z</time>
      </trkpt>
      <trkpt lat="46.54309" lon="-1.75631">
        <ele>140</ele>
        <time>2019-12-30T17:59:33Z</time>
      </trkpt>
      <trkpt lat="46.54285" lon="-1.75614">
        <ele>141</ele>
        <time>2019-12-30T17:59:41Z</time>
      </trkpt>
      <trkpt lat="46.54265" lon="-1.75603">
        <ele>142</ele>
        <time>2019-12-30T17:59:49Z</time>
      </trkpt>
      <trkpt lat="46.5425" lon="-1.75595">
        <ele>143</ele>
        <time>2019-12-30T17:59:56Z</time>
      </trkpt>
      <trkpt lat="46.54241" lon="-1.75589">
        <ele>144</ele>
        <time>2019-12-30T18:00:01Z</time>
      </trkpt>
      <trkpt lat="46.54225" lon="-1.75575">
        <ele>145</ele>
        <time>2019-12-30T18:00:10Z</time>
      </trkpt>
      <trkpt lat="46.54193" lon="-1.75546">
        <ele>146</ele>
        <time>2019-12-30T18:00:29Z</time>
      </trkpt>
      <trkpt lat="46.54173" lon="-1.75527">
        <ele>147</ele>
        <time>2019-12-30T18:00:41Z</time>
      </trkpt>
      <trkpt lat="46.54158" lon="-1.75514">
        <ele>148</ele>
        <time>2019-12-30T18:00:50Z</time>
      </trkpt>
      <trkpt lat="46.54135" lon="-1.7549">
        <ele>149</ele>
        <time>2019-12-30T18:01:04Z</time>
      </trkpt>
      <trkpt lat="46.5412" lon="-1.75434">
        <ele>148</ele>
        <time>2019-12-30T18:01:22Z</time>
      </trkpt>
      <trkpt lat="46.54111" lon="-1.75414">
        <ele>147</ele>
        <time>2019-12-30T18:01:26Z</time>
      </trkpt>
      <trkpt lat="46.54099" lon="-1.7539">
        <ele>146</ele>
        <time>2019-12-30T18:01:31Z</time>
      </trkpt>
      <trkpt lat="46.54092" lon="-1.75364">
        <ele>145</ele>
        <time>2019-12-30T18:01:36Z</time>
      </trkpt>
      <trkpt lat="46.54082" lon="-1.75283">
        <ele>144</ele>
        <time>2019-12-30T18:01:52Z</time>
      </trkpt>
      <trkpt lat="46.54091" lon="-1.75205">
        <ele>144</ele>
        <time>2019-12-30T18:02:11Z</time>
      </trkpt>
      <trkpt lat="46.54093" lon="-1.75124">
        <ele>145</ele>
        <time>2019-12-30T18:02:33Z</time>
      </trkpt>
      <trkpt lat="46.54086" lon="-1.75043">
        <ele>145</ele>
        <time>2019-12-30T18:02:48Z</time>
      </trkpt>
      <trkpt lat="46.54078" lon="-1.74965">
        <ele>145</ele>
        <time>2019-12-30T18:03:04Z</time>
      </trkpt>
      <trkpt lat="46.54049" lon="-1.74899">
        <ele>145</ele>
        <time>2019-12-30T18:03:21Z</time>
      </trkpt>
      <trkpt lat="46.54044" lon="-1.7482">
        <ele>144</ele>
        <time>2019-12-30T18:03:36Z</time>
      </trkpt>
      <trkpt lat="46.54046" lon="-1.74813">
        <ele>144</ele>
        <time>2019-12-30T18:03:37Z</time>
      </trkpt>
      <trkpt lat="46.54059" lon="-1.74774">
        <ele>143</ele>
        <time>2019-12-30T18:03:43Z</time>
      </trkpt>
      <trkpt lat="46.54071" lon="-1.7473">
        <ele>141</ele>
        <time>2019-12-30T18:03:50Z</time>
      </trkpt>
      <trkpt lat="46.54078" lon="-1.747">
        <ele>141</ele>
        <time>2019-12-30T18:03:55Z</time>
      </trkpt>
      <trkpt lat="46.54082" lon="-1.7462">
        <ele>142</ele>
        <time>2019-12-30T18:04:10Z</time>
      </trkpt>
      <trkpt lat="46.54082" lon="-1.7459">
        <ele>143</ele>
        <time>2019-12-30T18:04:18Z</time>
      </trkpt>
      <trkpt lat="46.54083" lon="-1.74573">
        <ele>144</ele>
        <time>2019-12-30T18:04:25Z</time>
      </trkpt>
      <trkpt lat="46.54085" lon="-1.74538">
        <ele>145</ele>
        <time>2019-12-30T18:04:39Z</time>
      </trkpt>
      <trkpt lat="46.54086" lon="-1.74525">
        <ele>146</ele>
        <time>2019-12-30T18:04:46Z</time>
      </trkpt>
      <trkpt lat="46.54085" lon="-1.74494">
        <ele>147</ele>
        <time>2019-12-30T18:05:00Z</time>
      </trkpt>
      <trkpt lat="46.54081" lon="-1.74463">
        <ele>148</ele>
        <time>2019-12-30T18:05:12Z</time>
      </trkpt>
      <trkpt lat="46.54071" lon="-1.74385">
        <ele>149</ele>
        <time>2019-12-30T18:05:34Z</time>
      </trkpt>
      <trkpt lat="46.54066" lon="-1.74358">
        <ele>149</ele>
        <time>2019-12-30T18:05:41Z</time>
      </trkpt>
      <trkpt lat="46.54053" lon="-1.7428">
        <ele>148</ele>
        <time>2019-12-30T18:05:58Z</time>
      </trkpt>
      <trkpt lat="46.54041" lon="-1.74211">
        <ele>149</ele>
        <time>2019-12-30T18:06:17Z</time>
      </trkpt>
      <trkpt lat="46.54034" lon="-1.74143">
        <ele>150</ele>
        <time>2019-12-30T18:06:38Z</time>
      </trkpt>
      <trkpt lat="46.54037" lon="-1.74065">
        <ele>150</ele>
        <time>2019-12-30T18:06:54Z</time>
      </trkpt>
      <trkpt lat="46.54062" lon="-1.73992">
        <ele>150</ele>
        <time>2019-12-30T18:07:11Z</time>
      </trkpt>
      <trkpt lat="46.54071" lon="-1.73916">
        <ele>151</ele>
        <time>2019-12-30T18:07:29Z</time>
      </trkpt>
      <trkpt lat="46.54076" lon="-1.73868">
        <ele>152</ele>
        <time>2019-12-30T18:07:42Z</time>
      </trkpt>
      <trkpt lat="46.54084" lon="-1.73787">
        <ele>153</ele>
        <time>2019-12-30T18:08:01Z</time>
      </trkpt>
      <trkpt lat="46.54084" lon="-1.73783">
        <ele>153</ele>
        <time>2019-12-30T18:08:02Z</time>
      </trkpt>
      <trkpt lat="46.54078" lon="-1.73702">
        <ele>154</ele>
        <time>2019-12-30T18:08:21Z</time>
      </trkpt>
      <trkpt lat="46.54075" lon="-1.73619">
        <ele>154</ele>
        <time>2019-12-30T18:08:40Z</time>
      </trkpt>
      <trkpt lat="46.54067" lon="-1.73558">
        <ele>154</ele>
        <time>2019-12-30T18:08:54Z</time>
      </trkpt>
      <trkpt lat="46.54056" lon="-1.7348">
        <ele>154</ele>
        <time>2019-12-30T18:09:15Z</time>
      </trkpt>
      <trkpt lat="46.54058" lon="-1.73471">
        <ele>154</ele>
        <time>2019-12-30T18:09:18Z</time>
      </trkpt>
      <trkpt lat="46.54087" lon="-1.73447">
        <ele>153</ele>
        <time>2019-12-30T18:09:31Z</time>
      </trkpt>
      <trkpt lat="46.54106" lon="-1.73419">
        <ele>153</ele>
        <time>2019-12-30T18:09:43Z</time>
      </trkpt>
      <trkpt lat="46.54109" lon="-1.73418">
        <ele>153</ele>
        <time>2019-12-30T18:09:47Z</time>
      </trkpt>
      <trkpt lat="46.54115" lon="-1.73418">
        <ele>153</ele>
        <time>2019-12-30T18:10:15Z</time>
      </trkpt>
    </trkseg>
  </trk>
</gpx>